<?xml version="1.0" encoding="UTF-8"?>
<gpx version="1.1" creator="2bulu-scraper" xmlns="http://www.topografix.com/GPX/1/1">
  <metadata><name>徒步龙卦山</name><desc>source: 2bulu.com trackId=82281541; exported 2026-09-01T14:48:08.136Z</desc>
    <bounds minlat="28.6603638" minlon="105.642196" maxlat="28.6778829" maxlon="105.6703766"/>
    <link href="https://www.2bulu.com/track/t-0KUT9kSd9ozp%252FR2KBg5Tzw%253D%253D.htm"><text>2bulu 源页面</text></link>
  </metadata>
  <wpt lat="28.6756964" lon="105.6701833"><ele>272</ele><name>龙卦山游客中心
        </name></wpt>
  <wpt lat="28.6748034" lon="105.6677393"><ele>275</ele><name>徒步起点
        </name></wpt>
  <wpt lat="28.6746695" lon="105.6617903"><ele>331</ele><name>农户坝子边
        </name></wpt>
  <wpt lat="28.6741231" lon="105.6612357"><ele>332</ele><name>
        </name></wpt>
  <wpt lat="28.6739191" lon="105.6596274"><ele>345</ele><name>
        </name></wpt>
  <wpt lat="28.6732531" lon="105.6582982"><ele>366</ele><name>
        </name></wpt>
  <wpt lat="28.6712028" lon="105.6550048"><ele>386</ele><name>罗沟
        </name></wpt>
  <wpt lat="28.6707567" lon="105.65496"><ele>406</ele><name>
        </name></wpt>
  <wpt lat="28.6707253" lon="105.65475"><ele>409</ele><name>
        </name></wpt>
  <wpt lat="28.6707154" lon="105.654627"><ele>416</ele><name>
        </name></wpt>
  <wpt lat="28.6702621" lon="105.6542321"><ele>442</ele><name>玻璃桥
        </name></wpt>
  <wpt lat="28.6692176" lon="105.6522435"><ele>514</ele><name>丁山
        </name></wpt>
  <wpt lat="28.6692399" lon="105.6517795"><ele>525</ele><name>
        </name></wpt>
  <wpt lat="28.6687222" lon="105.6493905"><ele>556</ele><name>
        </name></wpt>
  <wpt lat="28.6687222" lon="105.6493905"><ele>556</ele><name>
        </name></wpt>
  <wpt lat="28.6692184" lon="105.6476365"><ele>585</ele><name>
        </name></wpt>
  <wpt lat="28.6682823" lon="105.6448965"><ele>664</ele><name>
        </name></wpt>
  <wpt lat="28.671814" lon="105.6425092"><ele>740</ele><name>
        </name></wpt>
  <wpt lat="28.6732517" lon="105.6427867"><ele>729</ele><name>
        </name></wpt>
  <wpt lat="28.6744329" lon="105.6434165"><ele>735</ele><name>竹林
        </name></wpt>
  <wpt lat="28.6755663" lon="105.6445812"><ele>712</ele><name>植物园
        </name></wpt>
  <wpt lat="28.6753833" lon="105.6448033"><ele>697</ele><name>枫叶林
        </name></wpt>
  <wpt lat="28.675372" lon="105.6451439"><ele>689</ele><name>
        </name></wpt>
  <wpt lat="28.675372" lon="105.6451439"><ele>689</ele><name>
        </name></wpt>
  <wpt lat="28.6751758" lon="105.6450972"><ele>686</ele><name>
        </name></wpt>
  <wpt lat="28.6766805" lon="105.6508621"><ele>789</ele><name>农家小院
        </name></wpt>
  <wpt lat="28.6765502" lon="105.6506486"><ele>792</ele><name>
        </name></wpt>
  <wpt lat="28.6769362" lon="105.6512355"><ele>798</ele><name>
        </name></wpt>
  <wpt lat="28.6771163" lon="105.6510412"><ele>796</ele><name>
        </name></wpt>
  <wpt lat="28.6771163" lon="105.6510412"><ele>796</ele><name>
        </name></wpt>
  <wpt lat="28.6690729" lon="105.6482964"><ele>579</ele><name>
        </name></wpt>
  <wpt lat="28.66797" lon="105.64904"><ele>593</ele><name>
        </name></wpt>
  <wpt lat="28.6677108" lon="105.6489648"><ele>605</ele><name>
        </name></wpt>
  <wpt lat="28.6654514" lon="105.6502855"><ele>717</ele><name>
        </name></wpt>
  <wpt lat="28.664989" lon="105.6529572"><ele>728</ele><name>
        </name></wpt>
  <wpt lat="28.665126" lon="105.6532999"><ele>729</ele><name>
        </name></wpt>
  <wpt lat="28.6653835" lon="105.6536263"><ele>732</ele><name>
        </name></wpt>
  <wpt lat="28.6653718" lon="105.6541531"><ele>731</ele><name>
        </name></wpt>
  <wpt lat="28.6642904" lon="105.6555573"><ele>739</ele><name>
        </name></wpt>
  <wpt lat="28.6642904" lon="105.6555573"><ele>739</ele><name>
        </name></wpt>
  <wpt lat="28.6646864" lon="105.656289"><ele>743</ele><name>
        </name></wpt>
  <wpt lat="28.6649893" lon="105.6602388"><ele>741</ele><name>
        </name></wpt>
  <wpt lat="28.66483" lon="105.660609"><ele>756</ele><name>
        </name></wpt>
  <wpt lat="28.6622835" lon="105.6638041"><ele>741</ele><name>
        </name></wpt>
  <wpt lat="28.6604057" lon="105.6657841"><ele>713</ele><name>
        </name></wpt>
  <wpt lat="28.6603638" lon="105.6660046"><ele>713</ele><name>
        </name></wpt>
  <wpt lat="28.6603638" lon="105.6660046"><ele>713</ele><name>寨门
        </name></wpt>
  <wpt lat="28.6604183" lon="105.6660483"><ele>709</ele><name>寨门
        </name></wpt>
  <wpt lat="28.6609409" lon="105.6662009"><ele>664</ele><name>
        </name></wpt>
  <wpt lat="28.6613778" lon="105.6659138"><ele>649</ele><name>
        </name></wpt>
  <wpt lat="28.6613778" lon="105.6659138"><ele>649</ele><name>丁山
        </name></wpt>
  <wpt lat="28.6629249" lon="105.6678857"><ele>504</ele><name>
        </name></wpt>
  <wpt lat="28.6651327" lon="105.6686896"><ele>417</ele><name>
        </name></wpt>
  <wpt lat="28.6679926" lon="105.6689788"><ele>352</ele><name>
        </name></wpt>
  <wpt lat="28.6730786" lon="105.6692452"><ele>273</ele><name>
        </name></wpt>
  <trk><name>徒步龙卦山</name>
      <trkseg>
        <trkpt lat="28.6759033" lon="105.670155"><ele>293</ele><time>2026-04-14T16:25:22.000Z</time></trkpt>
        <trkpt lat="28.67579" lon="105.67016"><ele>293</ele><time>2026-04-14T16:25:24.000Z</time></trkpt>
        <trkpt lat="28.6756964" lon="105.6701833"><ele>287.62</ele><time>2026-04-14T16:25:40.000Z</time></trkpt>
        <trkpt lat="28.6756565" lon="105.670107"><ele>280.82</ele><time>2026-04-14T16:26:36.000Z</time></trkpt>
        <trkpt lat="28.6756435" lon="105.6699996"><ele>279.13</ele><time>2026-04-14T16:27:06.000Z</time></trkpt>
        <trkpt lat="28.6756208" lon="105.6698812"><ele>278.9</ele><time>2026-04-14T16:27:24.000Z</time></trkpt>
        <trkpt lat="28.675594" lon="105.6697691"><ele>278.94</ele><time>2026-04-14T16:27:44.000Z</time></trkpt>
        <trkpt lat="28.6755407" lon="105.669671"><ele>278.88</ele><time>2026-04-14T16:27:58.000Z</time></trkpt>
        <trkpt lat="28.6754973" lon="105.6695754"><ele>278.5</ele><time>2026-04-14T16:28:10.000Z</time></trkpt>
        <trkpt lat="28.6754612" lon="105.6694657"><ele>278.5</ele><time>2026-04-14T16:28:26.000Z</time></trkpt>
        <trkpt lat="28.6754205" lon="105.6693594"><ele>279.19</ele><time>2026-04-14T16:28:38.000Z</time></trkpt>
        <trkpt lat="28.6753525" lon="105.66929"><ele>279.45</ele><time>2026-04-14T16:28:50.000Z</time></trkpt>
        <trkpt lat="28.6752761" lon="105.6692142"><ele>279.21</ele><time>2026-04-14T16:29:02.000Z</time></trkpt>
        <trkpt lat="28.6752243" lon="105.6691192"><ele>278.35</ele><time>2026-04-14T16:29:12.000Z</time></trkpt>
        <trkpt lat="28.6751878" lon="105.6690039"><ele>277.55</ele><time>2026-04-14T16:29:22.000Z</time></trkpt>
        <trkpt lat="28.67516" lon="105.6688907"><ele>276.37</ele><time>2026-04-14T16:29:32.000Z</time></trkpt>
        <trkpt lat="28.6751479" lon="105.6687823"><ele>275.56</ele><time>2026-04-14T16:29:42.000Z</time></trkpt>
        <trkpt lat="28.6751355" lon="105.6686699"><ele>275.19</ele><time>2026-04-14T16:29:52.000Z</time></trkpt>
        <trkpt lat="28.6751215" lon="105.668565"><ele>275.24</ele><time>2026-04-14T16:30:00.000Z</time></trkpt>
        <trkpt lat="28.6751124" lon="105.6684606"><ele>275.82</ele><time>2026-04-14T16:30:08.000Z</time></trkpt>
        <trkpt lat="28.6751023" lon="105.6683399"><ele>275.94</ele><time>2026-04-14T16:30:18.000Z</time></trkpt>
        <trkpt lat="28.6750776" lon="105.6682192"><ele>275.45</ele><time>2026-04-14T16:30:28.000Z</time></trkpt>
        <trkpt lat="28.6750299" lon="105.6681132"><ele>274.83</ele><time>2026-04-14T16:30:38.000Z</time></trkpt>
        <trkpt lat="28.6749732" lon="105.6680029"><ele>274.86</ele><time>2026-04-14T16:30:48.000Z</time></trkpt>
        <trkpt lat="28.6749149" lon="105.6679068"><ele>274.96</ele><time>2026-04-14T16:30:58.000Z</time></trkpt>
        <trkpt lat="28.6748573" lon="105.667822"><ele>275.06</ele><time>2026-04-14T16:31:06.000Z</time></trkpt>
        <trkpt lat="28.6748034" lon="105.6677393"><ele>274.99</ele><time>2026-04-14T16:31:15.000Z</time></trkpt>
        <trkpt lat="28.6747386" lon="105.6676675"><ele>275</ele><time>2026-04-14T16:31:29.000Z</time></trkpt>
        <trkpt lat="28.674735" lon="105.6675741"><ele>275</ele><time>2026-04-14T16:31:51.000Z</time></trkpt>
        <trkpt lat="28.6747656" lon="105.6674755"><ele>274.91</ele><time>2026-04-14T16:31:59.000Z</time></trkpt>
        <trkpt lat="28.6748044" lon="105.6673658"><ele>274.74</ele><time>2026-04-14T16:32:09.000Z</time></trkpt>
        <trkpt lat="28.6748278" lon="105.6672601"><ele>274.72</ele><time>2026-04-14T16:32:19.000Z</time></trkpt>
        <trkpt lat="28.6748494" lon="105.6671455"><ele>274.63</ele><time>2026-04-14T16:32:29.000Z</time></trkpt>
        <trkpt lat="28.6748637" lon="105.6670355"><ele>275.22</ele><time>2026-04-14T16:32:37.000Z</time></trkpt>
        <trkpt lat="28.6748916" lon="105.6669341"><ele>275.3</ele><time>2026-04-14T16:32:45.000Z</time></trkpt>
        <trkpt lat="28.674921" lon="105.6668259"><ele>275.38</ele><time>2026-04-14T16:32:55.000Z</time></trkpt>
        <trkpt lat="28.6749492" lon="105.6667123"><ele>275.18</ele><time>2026-04-14T16:33:05.000Z</time></trkpt>
        <trkpt lat="28.6749477" lon="105.6665993"><ele>274.58</ele><time>2026-04-14T16:33:15.000Z</time></trkpt>
        <trkpt lat="28.674924" lon="105.666497"><ele>274.55</ele><time>2026-04-14T16:33:25.000Z</time></trkpt>
        <trkpt lat="28.6748649" lon="105.6664012"><ele>275.13</ele><time>2026-04-14T16:33:35.000Z</time></trkpt>
        <trkpt lat="28.6747962" lon="105.6663237"><ele>275.93</ele><time>2026-04-14T16:33:43.000Z</time></trkpt>
        <trkpt lat="28.674722" lon="105.6662458"><ele>276.09</ele><time>2026-04-14T16:33:53.000Z</time></trkpt>
        <trkpt lat="28.6746792" lon="105.666144"><ele>276.1</ele><time>2026-04-14T16:34:03.000Z</time></trkpt>
        <trkpt lat="28.6746894" lon="105.6660291"><ele>276.57</ele><time>2026-04-14T16:34:15.000Z</time></trkpt>
        <trkpt lat="28.6746867" lon="105.6659215"><ele>277.79</ele><time>2026-04-14T16:34:57.000Z</time></trkpt>
        <trkpt lat="28.6746683" lon="105.6658053"><ele>279.26</ele><time>2026-04-14T16:35:07.000Z</time></trkpt>
        <trkpt lat="28.6746306" lon="105.66569"><ele>280.48</ele><time>2026-04-14T16:35:17.000Z</time></trkpt>
        <trkpt lat="28.6745961" lon="105.6655818"><ele>281.52</ele><time>2026-04-14T16:35:27.000Z</time></trkpt>
        <trkpt lat="28.6746054" lon="105.6654766"><ele>282.85</ele><time>2026-04-14T16:35:37.000Z</time></trkpt>
        <trkpt lat="28.674641" lon="105.6653796"><ele>283.99</ele><time>2026-04-14T16:35:45.000Z</time></trkpt>
        <trkpt lat="28.674693" lon="105.6652905"><ele>285.2</ele><time>2026-04-14T16:35:53.000Z</time></trkpt>
        <trkpt lat="28.6747207" lon="105.665181"><ele>286.19</ele><time>2026-04-14T16:36:03.000Z</time></trkpt>
        <trkpt lat="28.6747299" lon="105.6650696"><ele>287.4</ele><time>2026-04-14T16:36:13.000Z</time></trkpt>
        <trkpt lat="28.6747449" lon="105.664952"><ele>288.69</ele><time>2026-04-14T16:36:25.000Z</time></trkpt>
        <trkpt lat="28.6747593" lon="105.6648325"><ele>290.59</ele><time>2026-04-14T16:36:39.000Z</time></trkpt>
        <trkpt lat="28.6747713" lon="105.6647168"><ele>292.61</ele><time>2026-04-14T16:36:51.000Z</time></trkpt>
        <trkpt lat="28.6747864" lon="105.6645965"><ele>295.06</ele><time>2026-04-14T16:37:03.000Z</time></trkpt>
        <trkpt lat="28.674794" lon="105.6644885"><ele>297.44</ele><time>2026-04-14T16:37:13.000Z</time></trkpt>
        <trkpt lat="28.6747888" lon="105.6643838"><ele>299.66</ele><time>2026-04-14T16:37:29.000Z</time></trkpt>
        <trkpt lat="28.6747781" lon="105.6642749"><ele>302.09</ele><time>2026-04-14T16:37:43.000Z</time></trkpt>
        <trkpt lat="28.6747762" lon="105.6641627"><ele>304.29</ele><time>2026-04-14T16:37:57.000Z</time></trkpt>
        <trkpt lat="28.6747834" lon="105.6640493"><ele>306.36</ele><time>2026-04-14T16:38:09.000Z</time></trkpt>
        <trkpt lat="28.6747889" lon="105.6639368"><ele>308.44</ele><time>2026-04-14T16:38:21.000Z</time></trkpt>
        <trkpt lat="28.6747856" lon="105.6638274"><ele>310.49</ele><time>2026-04-14T16:38:43.000Z</time></trkpt>
        <trkpt lat="28.6747577" lon="105.6637292"><ele>312.94</ele><time>2026-04-14T16:38:55.000Z</time></trkpt>
        <trkpt lat="28.6747462" lon="105.6636236"><ele>315.16</ele><time>2026-04-14T16:39:13.000Z</time></trkpt>
        <trkpt lat="28.674726" lon="105.6635133"><ele>318.36</ele><time>2026-04-14T16:39:23.000Z</time></trkpt>
        <trkpt lat="28.6746837" lon="105.663419"><ele>320.7</ele><time>2026-04-14T16:40:05.000Z</time></trkpt>
        <trkpt lat="28.6746388" lon="105.6633219"><ele>322.16</ele><time>2026-04-14T16:40:15.000Z</time></trkpt>
        <trkpt lat="28.6745869" lon="105.6632219"><ele>323</ele><time>2026-04-14T16:40:25.000Z</time></trkpt>
        <trkpt lat="28.6745296" lon="105.6631218"><ele>323.13</ele><time>2026-04-14T16:40:37.000Z</time></trkpt>
        <trkpt lat="28.6744799" lon="105.6630267"><ele>323.98</ele><time>2026-04-14T16:40:45.000Z</time></trkpt>
        <trkpt lat="28.67445" lon="105.6629273"><ele>324.8</ele><time>2026-04-14T16:40:55.000Z</time></trkpt>
        <trkpt lat="28.6744374" lon="105.6628197"><ele>325.66</ele><time>2026-04-14T16:41:07.000Z</time></trkpt>
        <trkpt lat="28.6744401" lon="105.6626992"><ele>326.15</ele><time>2026-04-14T16:41:31.000Z</time></trkpt>
        <trkpt lat="28.6745081" lon="105.6626133"><ele>325.79</ele><time>2026-04-14T16:41:43.000Z</time></trkpt>
        <trkpt lat="28.6746059" lon="105.6625924"><ele>325.83</ele><time>2026-04-14T16:41:55.000Z</time></trkpt>
        <trkpt lat="28.6747113" lon="105.6625638"><ele>327.41</ele><time>2026-04-14T16:42:07.000Z</time></trkpt>
        <trkpt lat="28.6748106" lon="105.6625606"><ele>330.07</ele><time>2026-04-14T16:42:19.000Z</time></trkpt>
        <trkpt lat="28.6749075" lon="105.6625511"><ele>332.67</ele><time>2026-04-14T16:42:31.000Z</time></trkpt>
        <trkpt lat="28.6749262" lon="105.6624581"><ele>334.44</ele><time>2026-04-14T16:42:55.000Z</time></trkpt>
        <trkpt lat="28.6749322" lon="105.6623473"><ele>333.44</ele><time>2026-04-14T16:43:15.000Z</time></trkpt>
        <trkpt lat="28.6749001" lon="105.6622342"><ele>332.3</ele><time>2026-04-14T16:43:35.000Z</time></trkpt>
        <trkpt lat="28.6748869" lon="105.6621221"><ele>331.96</ele><time>2026-04-14T16:43:49.000Z</time></trkpt>
        <trkpt lat="28.6748668" lon="105.6620147"><ele>331.76</ele><time>2026-04-14T16:44:03.000Z</time></trkpt>
        <trkpt lat="28.6748349" lon="105.6619136"><ele>331.61</ele><time>2026-04-14T16:44:59.000Z</time></trkpt>
        <trkpt lat="28.6747495" lon="105.6618539"><ele>332.25</ele><time>2026-04-14T16:45:13.000Z</time></trkpt>
        <trkpt lat="28.6746695" lon="105.6617903"><ele>332.14</ele><time>2026-04-14T16:45:23.000Z</time></trkpt>
        <trkpt lat="28.674565" lon="105.66176"><ele>331.48</ele><time>2026-04-14T16:47:55.000Z</time></trkpt>
        <trkpt lat="28.67446" lon="105.6617333"><ele>329.77</ele><time>2026-04-14T16:48:33.000Z</time></trkpt>
        <trkpt lat="28.6743649" lon="105.6617067"><ele>328.66</ele><time>2026-04-14T16:48:45.000Z</time></trkpt>
        <trkpt lat="28.6742985" lon="105.6616337"><ele>328.94</ele><time>2026-04-14T16:48:53.000Z</time></trkpt>
        <trkpt lat="28.6742475" lon="105.6615412"><ele>329.22</ele><time>2026-04-14T16:49:05.000Z</time></trkpt>
        <trkpt lat="28.6742084" lon="105.6614431"><ele>329.3</ele><time>2026-04-14T16:49:15.000Z</time></trkpt>
        <trkpt lat="28.6741697" lon="105.6613401"><ele>329.47</ele><time>2026-04-14T16:49:27.000Z</time></trkpt>
        <trkpt lat="28.6741231" lon="105.6612357"><ele>330.17</ele><time>2026-04-14T16:49:41.000Z</time></trkpt>
        <trkpt lat="28.674069" lon="105.6611445"><ele>330.92</ele><time>2026-04-14T16:50:01.000Z</time></trkpt>
        <trkpt lat="28.6740109" lon="105.6610599"><ele>331.68</ele><time>2026-04-14T16:50:11.000Z</time></trkpt>
        <trkpt lat="28.6739768" lon="105.6609637"><ele>331.78</ele><time>2026-04-14T16:50:27.000Z</time></trkpt>
        <trkpt lat="28.6739255" lon="105.6608752"><ele>332</ele><time>2026-04-14T16:50:41.000Z</time></trkpt>
        <trkpt lat="28.6739045" lon="105.6607686"><ele>332.47</ele><time>2026-04-14T16:51:35.000Z</time></trkpt>
        <trkpt lat="28.6738949" lon="105.6606601"><ele>333.99</ele><time>2026-04-14T16:51:53.000Z</time></trkpt>
        <trkpt lat="28.6738692" lon="105.6605505"><ele>335.5</ele><time>2026-04-14T16:52:09.000Z</time></trkpt>
        <trkpt lat="28.6738487" lon="105.6604398"><ele>336.92</ele><time>2026-04-14T16:52:25.000Z</time></trkpt>
        <trkpt lat="28.6738441" lon="105.6603216"><ele>338.24</ele><time>2026-04-14T16:52:45.000Z</time></trkpt>
        <trkpt lat="28.6738488" lon="105.6602134"><ele>338.83</ele><time>2026-04-14T16:52:59.000Z</time></trkpt>
        <trkpt lat="28.6738759" lon="105.6600857"><ele>339.25</ele><time>2026-04-14T16:53:39.000Z</time></trkpt>
        <trkpt lat="28.6739027" lon="105.659973"><ele>340.09</ele><time>2026-04-14T16:54:11.000Z</time></trkpt>
        <trkpt lat="28.6739252" lon="105.6598443"><ele>341.17</ele><time>2026-04-14T16:54:41.000Z</time></trkpt>
        <trkpt lat="28.6739325" lon="105.6597319"><ele>342.3</ele><time>2026-04-14T16:55:13.000Z</time></trkpt>
        <trkpt lat="28.6739191" lon="105.6596274"><ele>343.03</ele><time>2026-04-14T16:55:35.000Z</time></trkpt>
        <trkpt lat="28.6738349" lon="105.6595716"><ele>344.05</ele><time>2026-04-14T16:56:17.000Z</time></trkpt>
        <trkpt lat="28.6737339" lon="105.6595767"><ele>345.84</ele><time>2026-04-14T16:56:37.000Z</time></trkpt>
        <trkpt lat="28.6736239" lon="105.6596111"><ele>348.1</ele><time>2026-04-14T16:57:07.000Z</time></trkpt>
        <trkpt lat="28.6735265" lon="105.659665"><ele>350.55</ele><time>2026-04-14T16:57:23.000Z</time></trkpt>
        <trkpt lat="28.6734536" lon="105.6597443"><ele>352.77</ele><time>2026-04-14T16:57:43.000Z</time></trkpt>
        <trkpt lat="28.6733689" lon="105.6597657"><ele>354.54</ele><time>2026-04-14T16:58:03.000Z</time></trkpt>
        <trkpt lat="28.673295" lon="105.6597102"><ele>355.99</ele><time>2026-04-14T16:58:23.000Z</time></trkpt>
        <trkpt lat="28.6732515" lon="105.6596132"><ele>356.29</ele><time>2026-04-14T16:58:37.000Z</time></trkpt>
        <trkpt lat="28.6732198" lon="105.6595034"><ele>356.38</ele><time>2026-04-14T16:58:49.000Z</time></trkpt>
        <trkpt lat="28.6732055" lon="105.6593914"><ele>356.35</ele><time>2026-04-14T16:59:09.000Z</time></trkpt>
        <trkpt lat="28.6732134" lon="105.6592731"><ele>355.81</ele><time>2026-04-14T16:59:21.000Z</time></trkpt>
        <trkpt lat="28.6732651" lon="105.6591782"><ele>354.95</ele><time>2026-04-14T16:59:33.000Z</time></trkpt>
        <trkpt lat="28.6733532" lon="105.6591133"><ele>353.89</ele><time>2026-04-14T16:59:49.000Z</time></trkpt>
        <trkpt lat="28.6734222" lon="105.6590299"><ele>353.98</ele><time>2026-04-14T17:00:03.000Z</time></trkpt>
        <trkpt lat="28.6734666" lon="105.6589253"><ele>355.28</ele><time>2026-04-14T17:00:15.000Z</time></trkpt>
        <trkpt lat="28.6735047" lon="105.6588204"><ele>357.14</ele><time>2026-04-14T17:00:27.000Z</time></trkpt>
        <trkpt lat="28.6735551" lon="105.6587116"><ele>358.71</ele><time>2026-04-14T17:00:55.000Z</time></trkpt>
        <trkpt lat="28.6736107" lon="105.658607"><ele>359.53</ele><time>2026-04-14T17:01:05.000Z</time></trkpt>
        <trkpt lat="28.6736756" lon="105.658517"><ele>360.33</ele><time>2026-04-14T17:01:17.000Z</time></trkpt>
        <trkpt lat="28.6737459" lon="105.6584399"><ele>361.18</ele><time>2026-04-14T17:01:29.000Z</time></trkpt>
        <trkpt lat="28.6738111" lon="105.6583468"><ele>362.18</ele><time>2026-04-14T17:01:45.000Z</time></trkpt>
        <trkpt lat="28.6737775" lon="105.6582679"><ele>363.13</ele><time>2026-04-14T17:01:59.000Z</time></trkpt>
        <trkpt lat="28.6736938" lon="105.658207"><ele>364.67</ele><time>2026-04-14T17:02:11.000Z</time></trkpt>
        <trkpt lat="28.6735947" lon="105.6581484"><ele>365.93</ele><time>2026-04-14T17:02:21.000Z</time></trkpt>
        <trkpt lat="28.6734868" lon="105.6581443"><ele>366.05</ele><time>2026-04-14T17:02:33.000Z</time></trkpt>
        <trkpt lat="28.673392" lon="105.6582107"><ele>365.64</ele><time>2026-04-14T17:02:59.000Z</time></trkpt>
        <trkpt lat="28.6732983" lon="105.6582694"><ele>365.84</ele><time>2026-04-14T17:03:09.000Z</time></trkpt>
        <trkpt lat="28.6732531" lon="105.6582982"><ele>365.91</ele><time>2026-04-14T17:03:21.000Z</time></trkpt>
        <trkpt lat="28.6731821" lon="105.6583311"><ele>365.86</ele><time>2026-04-14T17:03:49.000Z</time></trkpt>
        <trkpt lat="28.6730942" lon="105.6583445"><ele>365.96</ele><time>2026-04-14T17:03:59.000Z</time></trkpt>
        <trkpt lat="28.6730189" lon="105.6582818"><ele>365.51</ele><time>2026-04-14T17:04:13.000Z</time></trkpt>
        <trkpt lat="28.6729417" lon="105.6582123"><ele>365.29</ele><time>2026-04-14T17:04:23.000Z</time></trkpt>
        <trkpt lat="28.6728637" lon="105.6581439"><ele>365.16</ele><time>2026-04-14T17:04:37.000Z</time></trkpt>
        <trkpt lat="28.6727715" lon="105.6580999"><ele>365.35</ele><time>2026-04-14T17:04:47.000Z</time></trkpt>
        <trkpt lat="28.6726755" lon="105.658089"><ele>365.67</ele><time>2026-04-14T17:04:57.000Z</time></trkpt>
        <trkpt lat="28.6725776" lon="105.6580669"><ele>365.86</ele><time>2026-04-14T17:05:07.000Z</time></trkpt>
        <trkpt lat="28.672491" lon="105.6580024"><ele>365.83</ele><time>2026-04-14T17:05:17.000Z</time></trkpt>
        <trkpt lat="28.6724165" lon="105.6579307"><ele>365.99</ele><time>2026-04-14T17:05:27.000Z</time></trkpt>
        <trkpt lat="28.6723534" lon="105.657847"><ele>366.04</ele><time>2026-04-14T17:05:37.000Z</time></trkpt>
        <trkpt lat="28.67233" lon="105.6577606"><ele>366.32</ele><time>2026-04-14T17:05:55.000Z</time></trkpt>
        <trkpt lat="28.6722825" lon="105.6576807"><ele>367.6</ele><time>2026-04-14T17:06:25.000Z</time></trkpt>
        <trkpt lat="28.6723023" lon="105.6575805"><ele>368.55</ele><time>2026-04-14T17:06:45.000Z</time></trkpt>
        <trkpt lat="28.6723302" lon="105.6574679"><ele>369.09</ele><time>2026-04-14T17:06:55.000Z</time></trkpt>
        <trkpt lat="28.6723562" lon="105.6573582"><ele>369.39</ele><time>2026-04-14T17:07:05.000Z</time></trkpt>
        <trkpt lat="28.6724027" lon="105.6572509"><ele>369.87</ele><time>2026-04-14T17:07:17.000Z</time></trkpt>
        <trkpt lat="28.6724005" lon="105.6571488"><ele>370.36</ele><time>2026-04-14T17:07:33.000Z</time></trkpt>
        <trkpt lat="28.6723299" lon="105.6571501"><ele>372.4</ele><time>2026-04-14T17:07:45.000Z</time></trkpt>
        <trkpt lat="28.6722285" lon="105.6571352"><ele>374.33</ele><time>2026-04-14T17:08:13.000Z</time></trkpt>
        <trkpt lat="28.6721293" lon="105.6571023"><ele>375.95</ele><time>2026-04-14T17:08:27.000Z</time></trkpt>
        <trkpt lat="28.6720326" lon="105.6570507"><ele>376.7</ele><time>2026-04-14T17:08:39.000Z</time></trkpt>
        <trkpt lat="28.6719288" lon="105.6570333"><ele>377.39</ele><time>2026-04-14T17:08:49.000Z</time></trkpt>
        <trkpt lat="28.6718334" lon="105.6569956"><ele>378.38</ele><time>2026-04-14T17:08:57.000Z</time></trkpt>
        <trkpt lat="28.6717771" lon="105.6569166"><ele>378.05</ele><time>2026-04-14T17:09:07.000Z</time></trkpt>
        <trkpt lat="28.6717289" lon="105.656804"><ele>376.13</ele><time>2026-04-14T17:09:17.000Z</time></trkpt>
        <trkpt lat="28.6717102" lon="105.6566904"><ele>374.91</ele><time>2026-04-14T17:09:29.000Z</time></trkpt>
        <trkpt lat="28.6717195" lon="105.6565821"><ele>373.02</ele><time>2026-04-14T17:09:39.000Z</time></trkpt>
        <trkpt lat="28.6717354" lon="105.6564687"><ele>371.55</ele><time>2026-04-14T17:09:49.000Z</time></trkpt>
        <trkpt lat="28.6717346" lon="105.6564242"><ele>371.14</ele><time>2026-04-14T17:09:59.000Z</time></trkpt>
        <trkpt lat="28.6716932" lon="105.6563453"><ele>371.98</ele><time>2026-04-14T17:10:11.000Z</time></trkpt>
        <trkpt lat="28.6716632" lon="105.6562492"><ele>372.64</ele><time>2026-04-14T17:10:29.000Z</time></trkpt>
        <trkpt lat="28.6716747" lon="105.6561306"><ele>372.15</ele><time>2026-04-14T17:10:39.000Z</time></trkpt>
        <trkpt lat="28.6716955" lon="105.6560084"><ele>372.04</ele><time>2026-04-14T17:10:49.000Z</time></trkpt>
        <trkpt lat="28.6717253" lon="105.6558968"><ele>371.85</ele><time>2026-04-14T17:10:59.000Z</time></trkpt>
        <trkpt lat="28.6717143" lon="105.6557901"><ele>371.92</ele><time>2026-04-14T17:11:09.000Z</time></trkpt>
        <trkpt lat="28.671682" lon="105.655689"><ele>371.91</ele><time>2026-04-14T17:11:19.000Z</time></trkpt>
        <trkpt lat="28.6716209" lon="105.6556084"><ele>371.9</ele><time>2026-04-14T17:11:31.000Z</time></trkpt>
        <trkpt lat="28.67158" lon="105.6555062"><ele>372.59</ele><time>2026-04-14T17:11:45.000Z</time></trkpt>
        <trkpt lat="28.6715255" lon="105.6554084"><ele>373.58</ele><time>2026-04-14T17:11:57.000Z</time></trkpt>
        <trkpt lat="28.6714549" lon="105.6553289"><ele>374.41</ele><time>2026-04-14T17:12:29.000Z</time></trkpt>
        <trkpt lat="28.6713969" lon="105.6552462"><ele>377.11</ele><time>2026-04-14T17:12:45.000Z</time></trkpt>
        <trkpt lat="28.6713673" lon="105.6551375"><ele>379.35</ele><time>2026-04-14T17:13:01.000Z</time></trkpt>
        <trkpt lat="28.6713182" lon="105.6550439"><ele>381.86</ele><time>2026-04-14T17:13:13.000Z</time></trkpt>
        <trkpt lat="28.6712028" lon="105.6550048"><ele>383.69</ele><time>2026-04-14T17:13:55.000Z</time></trkpt>
        <trkpt lat="28.6710972" lon="105.6549878"><ele>384.55</ele><time>2026-04-14T17:14:07.000Z</time></trkpt>
        <trkpt lat="28.6710327" lon="105.6550585"><ele>385.48</ele><time>2026-04-14T17:14:41.000Z</time></trkpt>
        <trkpt lat="28.6709522" lon="105.655082"><ele>386.73</ele><time>2026-04-14T17:15:07.000Z</time></trkpt>
        <trkpt lat="28.6708682" lon="105.6550494"><ele>387.41</ele><time>2026-04-14T17:15:43.000Z</time></trkpt>
        <trkpt lat="28.6708367" lon="105.6549493"><ele>389.77</ele><time>2026-04-14T17:16:09.000Z</time></trkpt>
        <trkpt lat="28.6707567" lon="105.65496"><ele>392.75</ele><time>2026-04-14T17:17:15.000Z</time></trkpt>
        <trkpt lat="28.6707233" lon="105.654855"><ele>398.32</ele><time>2026-04-14T17:17:53.000Z</time></trkpt>
        <trkpt lat="28.6707253" lon="105.65475"><ele>402.4</ele><time>2026-04-14T17:18:07.000Z</time></trkpt>
        <trkpt lat="28.6707154" lon="105.654627"><ele>405.41</ele><time>2026-04-14T17:18:41.000Z</time></trkpt>
        <trkpt lat="28.6706858" lon="105.6545209"><ele>410.01</ele><time>2026-04-14T17:19:05.000Z</time></trkpt>
        <trkpt lat="28.6706264" lon="105.654429"><ele>413.19</ele><time>2026-04-14T17:19:27.000Z</time></trkpt>
        <trkpt lat="28.6706032" lon="105.6543281"><ele>415.99</ele><time>2026-04-14T17:19:43.000Z</time></trkpt>
        <trkpt lat="28.6705392" lon="105.654263"><ele>418.96</ele><time>2026-04-14T17:19:57.000Z</time></trkpt>
        <trkpt lat="28.6704" lon="105.6542617"><ele>421.73</ele><time>2026-04-14T17:21:15.000Z</time></trkpt>
        <trkpt lat="28.6703367" lon="105.6541883"><ele>426.71</ele><time>2026-04-14T17:21:37.000Z</time></trkpt>
        <trkpt lat="28.6702621" lon="105.6542321"><ele>431.18</ele><time>2026-04-14T17:21:55.000Z</time></trkpt>
        <trkpt lat="28.6701751" lon="105.6542244"><ele>435.88</ele><time>2026-04-14T17:22:45.000Z</time></trkpt>
        <trkpt lat="28.6700743" lon="105.6542403"><ele>440.45</ele><time>2026-04-14T17:23:07.000Z</time></trkpt>
        <trkpt lat="28.6699815" lon="105.6542157"><ele>444.25</ele><time>2026-04-14T17:23:21.000Z</time></trkpt>
        <trkpt lat="28.669894" lon="105.6541726"><ele>447.29</ele><time>2026-04-14T17:23:37.000Z</time></trkpt>
        <trkpt lat="28.6698463" lon="105.6540792"><ele>451.34</ele><time>2026-04-14T17:24:17.000Z</time></trkpt>
        <trkpt lat="28.6697955" lon="105.6539791"><ele>455.79</ele><time>2026-04-14T17:24:31.000Z</time></trkpt>
        <trkpt lat="28.6697775" lon="105.6538716"><ele>458.51</ele><time>2026-04-14T17:24:43.000Z</time></trkpt>
        <trkpt lat="28.6697918" lon="105.6537512"><ele>460.53</ele><time>2026-04-14T17:24:55.000Z</time></trkpt>
        <trkpt lat="28.6697918" lon="105.6536353"><ele>462.36</ele><time>2026-04-14T17:25:07.000Z</time></trkpt>
        <trkpt lat="28.669801" lon="105.6535188"><ele>464.23</ele><time>2026-04-14T17:25:19.000Z</time></trkpt>
        <trkpt lat="28.6698053" lon="105.6534077"><ele>465.42</ele><time>2026-04-14T17:25:33.000Z</time></trkpt>
        <trkpt lat="28.6697805" lon="105.6533001"><ele>466.75</ele><time>2026-04-14T17:25:53.000Z</time></trkpt>
        <trkpt lat="28.6697212" lon="105.6532213"><ele>468.92</ele><time>2026-04-14T17:26:13.000Z</time></trkpt>
        <trkpt lat="28.6696431" lon="105.6531591"><ele>472.01</ele><time>2026-04-14T17:26:33.000Z</time></trkpt>
        <trkpt lat="28.6695671" lon="105.6530886"><ele>475.45</ele><time>2026-04-14T17:27:33.000Z</time></trkpt>
        <trkpt lat="28.6695194" lon="105.652992"><ele>479.73</ele><time>2026-04-14T17:27:45.000Z</time></trkpt>
        <trkpt lat="28.6694845" lon="105.6528929"><ele>482.08</ele><time>2026-04-14T17:27:57.000Z</time></trkpt>
        <trkpt lat="28.6694921" lon="105.652789"><ele>483.38</ele><time>2026-04-14T17:28:11.000Z</time></trkpt>
        <trkpt lat="28.6694627" lon="105.6526791"><ele>484.68</ele><time>2026-04-14T17:28:25.000Z</time></trkpt>
        <trkpt lat="28.6694194" lon="105.6525802"><ele>486.19</ele><time>2026-04-14T17:28:45.000Z</time></trkpt>
        <trkpt lat="28.669389" lon="105.6524785"><ele>488.73</ele><time>2026-04-14T17:29:09.000Z</time></trkpt>
        <trkpt lat="28.6693818" lon="105.6523755"><ele>492.2</ele><time>2026-04-14T17:29:27.000Z</time></trkpt>
        <trkpt lat="28.6693165" lon="105.6523297"><ele>495.08</ele><time>2026-04-14T17:29:53.000Z</time></trkpt>
        <trkpt lat="28.66929" lon="105.6522472"><ele>498.79</ele><time>2026-04-14T17:30:27.000Z</time></trkpt>
        <trkpt lat="28.6692176" lon="105.6522435"><ele>502.58</ele><time>2026-04-14T17:31:05.000Z</time></trkpt>
        <trkpt lat="28.6691713" lon="105.6521774"><ele>507.41</ele><time>2026-04-14T17:31:57.000Z</time></trkpt>
        <trkpt lat="28.6691906" lon="105.6520745"><ele>511.79</ele><time>2026-04-14T17:32:09.000Z</time></trkpt>
        <trkpt lat="28.6692109" lon="105.6519956"><ele>514.68</ele><time>2026-04-14T17:32:23.000Z</time></trkpt>
        <trkpt lat="28.6692304" lon="105.6518894"><ele>516.54</ele><time>2026-04-14T17:33:21.000Z</time></trkpt>
        <trkpt lat="28.6692399" lon="105.6517795"><ele>519.83</ele><time>2026-04-14T17:33:31.000Z</time></trkpt>
        <trkpt lat="28.6692133" lon="105.6516683"><ele>522.01</ele><time>2026-04-14T17:35:09.000Z</time></trkpt>
        <trkpt lat="28.6692067" lon="105.6515583"><ele>522.95</ele><time>2026-04-14T17:35:25.000Z</time></trkpt>
        <trkpt lat="28.669169" lon="105.6514653"><ele>523.23</ele><time>2026-04-14T17:35:53.000Z</time></trkpt>
        <trkpt lat="28.6691001" lon="105.651397"><ele>524.38</ele><time>2026-04-14T17:36:13.000Z</time></trkpt>
        <trkpt lat="28.6690451" lon="105.6513154"><ele>526.54</ele><time>2026-04-14T17:36:25.000Z</time></trkpt>
        <trkpt lat="28.6690051" lon="105.6512229"><ele>528.24</ele><time>2026-04-14T17:36:43.000Z</time></trkpt>
        <trkpt lat="28.6689625" lon="105.651125"><ele>530.76</ele><time>2026-04-14T17:37:07.000Z</time></trkpt>
        <trkpt lat="28.6689785" lon="105.6510218"><ele>534.35</ele><time>2026-04-14T17:37:23.000Z</time></trkpt>
        <trkpt lat="28.6689757" lon="105.6509148"><ele>536.69</ele><time>2026-04-14T17:37:39.000Z</time></trkpt>
        <trkpt lat="28.6689577" lon="105.6508057"><ele>537.81</ele><time>2026-04-14T17:38:09.000Z</time></trkpt>
        <trkpt lat="28.668936" lon="105.6506938"><ele>538.84</ele><time>2026-04-14T17:38:31.000Z</time></trkpt>
        <trkpt lat="28.6689197" lon="105.6505776"><ele>540.37</ele><time>2026-04-14T17:38:55.000Z</time></trkpt>
        <trkpt lat="28.6689157" lon="105.6504589"><ele>542.53</ele><time>2026-04-14T17:39:21.000Z</time></trkpt>
        <trkpt lat="28.6689213" lon="105.6503209"><ele>545.96</ele><time>2026-04-14T17:40:11.000Z</time></trkpt>
        <trkpt lat="28.668907" lon="105.6502025"><ele>548.64</ele><time>2026-04-14T17:40:31.000Z</time></trkpt>
        <trkpt lat="28.6688784" lon="105.6500976"><ele>550.05</ele><time>2026-04-14T17:40:51.000Z</time></trkpt>
        <trkpt lat="28.6688464" lon="105.6499921"><ele>552.48</ele><time>2026-04-14T17:41:09.000Z</time></trkpt>
        <trkpt lat="28.6688392" lon="105.6498843"><ele>552.7</ele><time>2026-04-14T17:41:29.000Z</time></trkpt>
        <trkpt lat="28.6688383" lon="105.6497801"><ele>553.13</ele><time>2026-04-14T17:42:11.000Z</time></trkpt>
        <trkpt lat="28.668816" lon="105.6496696"><ele>554.02</ele><time>2026-04-14T17:42:29.000Z</time></trkpt>
        <trkpt lat="28.6687952" lon="105.649564"><ele>555.47</ele><time>2026-04-14T17:42:41.000Z</time></trkpt>
        <trkpt lat="28.6687392" lon="105.6494855"><ele>556.47</ele><time>2026-04-14T17:42:57.000Z</time></trkpt>
        <trkpt lat="28.6687222" lon="105.6493905"><ele>556.61</ele><time>2026-04-14T17:43:27.000Z</time></trkpt>
        <trkpt lat="28.6687617" lon="105.6492933"><ele>556.14</ele><time>2026-04-14T17:45:25.000Z</time></trkpt>
        <trkpt lat="28.6687933" lon="105.649185"><ele>556.51</ele><time>2026-04-14T17:46:05.000Z</time></trkpt>
        <trkpt lat="28.6688306" lon="105.6490837"><ele>555.82</ele><time>2026-04-14T17:46:17.000Z</time></trkpt>
        <trkpt lat="28.668887" lon="105.6489888"><ele>555.85</ele><time>2026-04-14T17:46:31.000Z</time></trkpt>
        <trkpt lat="28.6689279" lon="105.6488822"><ele>556.78</ele><time>2026-04-14T17:46:43.000Z</time></trkpt>
        <trkpt lat="28.6689427" lon="105.6487735"><ele>557.86</ele><time>2026-04-14T17:47:01.000Z</time></trkpt>
        <trkpt lat="28.6689544" lon="105.6486632"><ele>560.03</ele><time>2026-04-14T17:47:17.000Z</time></trkpt>
        <trkpt lat="28.6689714" lon="105.6485476"><ele>562.6</ele><time>2026-04-14T17:47:43.000Z</time></trkpt>
        <trkpt lat="28.6690002" lon="105.648439"><ele>565.61</ele><time>2026-04-14T17:47:59.000Z</time></trkpt>
        <trkpt lat="28.6690185" lon="105.6483272"><ele>567.97</ele><time>2026-04-14T17:48:13.000Z</time></trkpt>
        <trkpt lat="28.6690775" lon="105.6482491"><ele>569.96</ele><time>2026-04-14T17:48:43.000Z</time></trkpt>
        <trkpt lat="28.6691141" lon="105.6481572"><ele>571.66</ele><time>2026-04-14T17:48:59.000Z</time></trkpt>
        <trkpt lat="28.6691304" lon="105.6480408"><ele>572.66</ele><time>2026-04-14T17:49:59.000Z</time></trkpt>
        <trkpt lat="28.6691758" lon="105.6479441"><ele>574.83</ele><time>2026-04-14T17:50:11.000Z</time></trkpt>
        <trkpt lat="28.6691979" lon="105.6478446"><ele>575.98</ele><time>2026-04-14T17:50:23.000Z</time></trkpt>
        <trkpt lat="28.6692081" lon="105.6477423"><ele>576.98</ele><time>2026-04-14T17:50:43.000Z</time></trkpt>
        <trkpt lat="28.6692184" lon="105.6476365"><ele>579.01</ele><time>2026-04-14T17:51:03.000Z</time></trkpt>
        <trkpt lat="28.6692983" lon="105.6475367"><ele>581.41</ele><time>2026-04-14T17:52:41.000Z</time></trkpt>
        <trkpt lat="28.6692983" lon="105.6474033"><ele>587.47</ele><time>2026-04-14T17:53:03.000Z</time></trkpt>
        <trkpt lat="28.6693068" lon="105.6472883"><ele>591.96</ele><time>2026-04-14T17:53:21.000Z</time></trkpt>
        <trkpt lat="28.6693183" lon="105.6470983"><ele>595.68</ele><time>2026-04-14T17:55:09.000Z</time></trkpt>
        <trkpt lat="28.66928" lon="105.6469983"><ele>601.54</ele><time>2026-04-14T17:55:43.000Z</time></trkpt>
        <trkpt lat="28.6692642" lon="105.6468955"><ele>606.04</ele><time>2026-04-14T17:56:03.000Z</time></trkpt>
        <trkpt lat="28.6692229" lon="105.6467973"><ele>608.99</ele><time>2026-04-14T17:56:31.000Z</time></trkpt>
        <trkpt lat="28.6691636" lon="105.6467157"><ele>611.36</ele><time>2026-04-14T17:56:49.000Z</time></trkpt>
        <trkpt lat="28.6691196" lon="105.6466235"><ele>614.3</ele><time>2026-04-14T17:57:17.000Z</time></trkpt>
        <trkpt lat="28.6690625" lon="105.6465354"><ele>618.34</ele><time>2026-04-14T17:57:49.000Z</time></trkpt>
        <trkpt lat="28.6690243" lon="105.6464301"><ele>622.54</ele><time>2026-04-14T17:58:05.000Z</time></trkpt>
        <trkpt lat="28.6690187" lon="105.6463132"><ele>625.84</ele><time>2026-04-14T17:58:27.000Z</time></trkpt>
        <trkpt lat="28.6690181" lon="105.6462029"><ele>628.27</ele><time>2026-04-14T17:58:49.000Z</time></trkpt>
        <trkpt lat="28.6689521" lon="105.6461663"><ele>630.69</ele><time>2026-04-14T17:59:45.000Z</time></trkpt>
        <trkpt lat="28.6688783" lon="105.6461117"><ele>633.79</ele><time>2026-04-14T18:00:03.000Z</time></trkpt>
        <trkpt lat="28.6688208" lon="105.6460328"><ele>635.99</ele><time>2026-04-14T18:00:23.000Z</time></trkpt>
        <trkpt lat="28.6687511" lon="105.645954"><ele>638.1</ele><time>2026-04-14T18:00:47.000Z</time></trkpt>
        <trkpt lat="28.6686709" lon="105.6458873"><ele>641.28</ele><time>2026-04-14T18:01:15.000Z</time></trkpt>
        <trkpt lat="28.6686263" lon="105.6457852"><ele>644.95</ele><time>2026-04-14T18:01:35.000Z</time></trkpt>
        <trkpt lat="28.6686145" lon="105.6456761"><ele>648.15</ele><time>2026-04-14T18:01:49.000Z</time></trkpt>
        <trkpt lat="28.6686883" lon="105.6455817"><ele>650.97</ele><time>2026-04-14T18:03:49.000Z</time></trkpt>
        <trkpt lat="28.6686533" lon="105.6454817"><ele>653.39</ele><time>2026-04-14T18:04:01.000Z</time></trkpt>
        <trkpt lat="28.668675" lon="105.64538"><ele>655.16</ele><time>2026-04-14T18:05:01.000Z</time></trkpt>
        <trkpt lat="28.6686367" lon="105.6452833"><ele>655.39</ele><time>2026-04-14T18:05:15.000Z</time></trkpt>
        <trkpt lat="28.6685786" lon="105.6451979"><ele>655.87</ele><time>2026-04-14T18:05:25.000Z</time></trkpt>
        <trkpt lat="28.668508" lon="105.6451171"><ele>656.87</ele><time>2026-04-14T18:05:41.000Z</time></trkpt>
        <trkpt lat="28.6684221" lon="105.6450679"><ele>658.43</ele><time>2026-04-14T18:05:53.000Z</time></trkpt>
        <trkpt lat="28.6683164" lon="105.6449997"><ele>659.88</ele><time>2026-04-14T18:06:33.000Z</time></trkpt>
        <trkpt lat="28.6682823" lon="105.6448965"><ele>661.74</ele><time>2026-04-14T18:06:43.000Z</time></trkpt>
        <trkpt lat="28.6682751" lon="105.6447678"><ele>662.84</ele><time>2026-04-14T18:07:27.000Z</time></trkpt>
        <trkpt lat="28.668306" lon="105.6446556"><ele>662.57</ele><time>2026-04-14T18:07:45.000Z</time></trkpt>
        <trkpt lat="28.6683404" lon="105.6445518"><ele>662.75</ele><time>2026-04-14T18:08:07.000Z</time></trkpt>
        <trkpt lat="28.6683197" lon="105.6444489"><ele>664.02</ele><time>2026-04-14T18:08:31.000Z</time></trkpt>
        <trkpt lat="28.6682755" lon="105.6443448"><ele>665.65</ele><time>2026-04-14T18:08:45.000Z</time></trkpt>
        <trkpt lat="28.6682258" lon="105.6442501"><ele>666.49</ele><time>2026-04-14T18:09:05.000Z</time></trkpt>
        <trkpt lat="28.6681965" lon="105.64414"><ele>667.91</ele><time>2026-04-14T18:09:19.000Z</time></trkpt>
        <trkpt lat="28.6681848" lon="105.6440301"><ele>668.85</ele><time>2026-04-14T18:09:35.000Z</time></trkpt>
        <trkpt lat="28.6681944" lon="105.6439245"><ele>669.95</ele><time>2026-04-14T18:09:51.000Z</time></trkpt>
        <trkpt lat="28.6682506" lon="105.6438396"><ele>671.56</ele><time>2026-04-14T18:10:11.000Z</time></trkpt>
        <trkpt lat="28.6683196" lon="105.6437571"><ele>673.21</ele><time>2026-04-14T18:10:49.000Z</time></trkpt>
        <trkpt lat="28.6684148" lon="105.6437244"><ele>674.24</ele><time>2026-04-14T18:11:05.000Z</time></trkpt>
        <trkpt lat="28.6685045" lon="105.6436841"><ele>675</ele><time>2026-04-14T18:11:21.000Z</time></trkpt>
        <trkpt lat="28.6685081" lon="105.6435991"><ele>675.73</ele><time>2026-04-14T18:11:39.000Z</time></trkpt>
        <trkpt lat="28.6685002" lon="105.6434966"><ele>677.14</ele><time>2026-04-14T18:12:01.000Z</time></trkpt>
        <trkpt lat="28.6685512" lon="105.6434206"><ele>678.5</ele><time>2026-04-14T18:12:27.000Z</time></trkpt>
        <trkpt lat="28.6686414" lon="105.6433764"><ele>681.38</ele><time>2026-04-14T18:12:45.000Z</time></trkpt>
        <trkpt lat="28.6687343" lon="105.6433396"><ele>685.52</ele><time>2026-04-14T18:12:59.000Z</time></trkpt>
        <trkpt lat="28.6688313" lon="105.6433272"><ele>688.87</ele><time>2026-04-14T18:13:09.000Z</time></trkpt>
        <trkpt lat="28.6689305" lon="105.6432936"><ele>691.29</ele><time>2026-04-14T18:13:21.000Z</time></trkpt>
        <trkpt lat="28.6689493" lon="105.6431975"><ele>693.62</ele><time>2026-04-14T18:13:35.000Z</time></trkpt>
        <trkpt lat="28.6688978" lon="105.6431086"><ele>696.19</ele><time>2026-04-14T18:13:45.000Z</time></trkpt>
        <trkpt lat="28.6688322" lon="105.6430184"><ele>698.22</ele><time>2026-04-14T18:14:01.000Z</time></trkpt>
        <trkpt lat="28.6688726" lon="105.6429729"><ele>701.82</ele><time>2026-04-14T18:14:19.000Z</time></trkpt>
        <trkpt lat="28.6689594" lon="105.6429583"><ele>705.73</ele><time>2026-04-14T18:14:37.000Z</time></trkpt>
        <trkpt lat="28.6690582" lon="105.6429618"><ele>708.9</ele><time>2026-04-14T18:15:07.000Z</time></trkpt>
        <trkpt lat="28.6691117" lon="105.6428683"><ele>710.32</ele><time>2026-04-14T18:16:17.000Z</time></trkpt>
        <trkpt lat="28.66921" lon="105.6428417"><ele>710.91</ele><time>2026-04-14T18:16:27.000Z</time></trkpt>
        <trkpt lat="28.6693041" lon="105.6428108"><ele>711.12</ele><time>2026-04-14T18:16:37.000Z</time></trkpt>
        <trkpt lat="28.6693807" lon="105.6427457"><ele>710.81</ele><time>2026-04-14T18:16:49.000Z</time></trkpt>
        <trkpt lat="28.6694719" lon="105.6427138"><ele>710.29</ele><time>2026-04-14T18:17:05.000Z</time></trkpt>
        <trkpt lat="28.669569" lon="105.6427324"><ele>709.99</ele><time>2026-04-14T18:17:15.000Z</time></trkpt>
        <trkpt lat="28.6696442" lon="105.6428127"><ele>710</ele><time>2026-04-14T18:17:25.000Z</time></trkpt>
        <trkpt lat="28.6696921" lon="105.6429173"><ele>710.47</ele><time>2026-04-14T18:17:33.000Z</time></trkpt>
        <trkpt lat="28.6697736" lon="105.6429745"><ele>711.21</ele><time>2026-04-14T18:17:43.000Z</time></trkpt>
        <trkpt lat="28.6698807" lon="105.6430002"><ele>712.33</ele><time>2026-04-14T18:17:57.000Z</time></trkpt>
        <trkpt lat="28.6699738" lon="105.6429536"><ele>713.52</ele><time>2026-04-14T18:18:09.000Z</time></trkpt>
        <trkpt lat="28.6700713" lon="105.6429514"><ele>713.68</ele><time>2026-04-14T18:18:23.000Z</time></trkpt>
        <trkpt lat="28.6701588" lon="105.6429979"><ele>714.34</ele><time>2026-04-14T18:18:35.000Z</time></trkpt>
        <trkpt lat="28.6702412" lon="105.6430563"><ele>715.7</ele><time>2026-04-14T18:18:45.000Z</time></trkpt>
        <trkpt lat="28.6703371" lon="105.6430863"><ele>717.16</ele><time>2026-04-14T18:18:55.000Z</time></trkpt>
        <trkpt lat="28.6704358" lon="105.6430664"><ele>718.51</ele><time>2026-04-14T18:19:07.000Z</time></trkpt>
        <trkpt lat="28.6705276" lon="105.6430075"><ele>719.88</ele><time>2026-04-14T18:19:21.000Z</time></trkpt>
        <trkpt lat="28.670614" lon="105.6429323"><ele>721.91</ele><time>2026-04-14T18:19:31.000Z</time></trkpt>
        <trkpt lat="28.6706872" lon="105.6428574"><ele>723.37</ele><time>2026-04-14T18:19:49.000Z</time></trkpt>
        <trkpt lat="28.6707623" lon="105.6427768"><ele>724.8</ele><time>2026-04-14T18:20:19.000Z</time></trkpt>
        <trkpt lat="28.6708441" lon="105.6427117"><ele>724.93</ele><time>2026-04-14T18:20:33.000Z</time></trkpt>
        <trkpt lat="28.6709223" lon="105.6426498"><ele>724.7</ele><time>2026-04-14T18:20:47.000Z</time></trkpt>
        <trkpt lat="28.6709879" lon="105.6425762"><ele>724.27</ele><time>2026-04-14T18:21:05.000Z</time></trkpt>
        <trkpt lat="28.6710414" lon="105.6424905"><ele>723.42</ele><time>2026-04-14T18:21:43.000Z</time></trkpt>
        <trkpt lat="28.6710787" lon="105.6425412"><ele>723.11</ele><time>2026-04-14T18:22:07.000Z</time></trkpt>
        <trkpt lat="28.6711225" lon="105.642501"><ele>724.01</ele><time>2026-04-14T18:22:29.000Z</time></trkpt>
        <trkpt lat="28.6711763" lon="105.6424144"><ele>726.29</ele><time>2026-04-14T18:22:45.000Z</time></trkpt>
        <trkpt lat="28.6712555" lon="105.6423422"><ele>728.36</ele><time>2026-04-14T18:23:03.000Z</time></trkpt>
        <trkpt lat="28.6713362" lon="105.6422697"><ele>731</ele><time>2026-04-14T18:23:37.000Z</time></trkpt>
        <trkpt lat="28.6714295" lon="105.6422694"><ele>733.02</ele><time>2026-04-14T18:24:13.000Z</time></trkpt>
        <trkpt lat="28.6714089" lon="105.6423398"><ele>734.82</ele><time>2026-04-14T18:24:29.000Z</time></trkpt>
        <trkpt lat="28.6714307" lon="105.6424336"><ele>734.94</ele><time>2026-04-14T18:24:51.000Z</time></trkpt>
        <trkpt lat="28.6715267" lon="105.6424683"><ele>734.66</ele><time>2026-04-14T18:26:35.000Z</time></trkpt>
        <trkpt lat="28.6716317" lon="105.64247"><ele>733.99</ele><time>2026-04-14T18:26:49.000Z</time></trkpt>
        <trkpt lat="28.671724" lon="105.6424858"><ele>734.38</ele><time>2026-04-14T18:27:03.000Z</time></trkpt>
        <trkpt lat="28.671814" lon="105.6425092"><ele>735.72</ele><time>2026-04-14T18:27:29.000Z</time></trkpt>
        <trkpt lat="28.6719733" lon="105.642505"><ele>737.35</ele><time>2026-04-14T18:31:29.000Z</time></trkpt>
        <trkpt lat="28.672075" lon="105.6425"><ele>735.74</ele><time>2026-04-14T18:31:45.000Z</time></trkpt>
        <trkpt lat="28.6721668" lon="105.6424668"><ele>735.03</ele><time>2026-04-14T18:31:57.000Z</time></trkpt>
        <trkpt lat="28.6722285" lon="105.6423926"><ele>734.89</ele><time>2026-04-14T18:32:07.000Z</time></trkpt>
        <trkpt lat="28.6722971" lon="105.6423092"><ele>735.11</ele><time>2026-04-14T18:32:21.000Z</time></trkpt>
        <trkpt lat="28.6723742" lon="105.6422453"><ele>735.11</ele><time>2026-04-14T18:32:31.000Z</time></trkpt>
        <trkpt lat="28.67246" lon="105.6422092"><ele>734.97</ele><time>2026-04-14T18:32:41.000Z</time></trkpt>
        <trkpt lat="28.6725664" lon="105.642196"><ele>734.99</ele><time>2026-04-14T18:32:51.000Z</time></trkpt>
        <trkpt lat="28.6726773" lon="105.6422046"><ele>734.69</ele><time>2026-04-14T18:33:01.000Z</time></trkpt>
        <trkpt lat="28.6727696" lon="105.6422416"><ele>734.44</ele><time>2026-04-14T18:33:09.000Z</time></trkpt>
        <trkpt lat="28.6728529" lon="105.6422905"><ele>733.86</ele><time>2026-04-14T18:33:17.000Z</time></trkpt>
        <trkpt lat="28.6729396" lon="105.6423473"><ele>733.06</ele><time>2026-04-14T18:33:27.000Z</time></trkpt>
        <trkpt lat="28.6730271" lon="105.642411"><ele>731.79</ele><time>2026-04-14T18:33:37.000Z</time></trkpt>
        <trkpt lat="28.6731238" lon="105.6424507"><ele>730.59</ele><time>2026-04-14T18:33:47.000Z</time></trkpt>
        <trkpt lat="28.6732127" lon="105.6424667"><ele>729.91</ele><time>2026-04-14T18:34:05.000Z</time></trkpt>
        <trkpt lat="28.673227" lon="105.6425535"><ele>729.26</ele><time>2026-04-14T18:34:53.000Z</time></trkpt>
        <trkpt lat="28.6732167" lon="105.642685"><ele>728.59</ele><time>2026-04-14T18:37:17.000Z</time></trkpt>
        <trkpt lat="28.6732517" lon="105.6427867"><ele>728.64</ele><time>2026-04-14T18:37:31.000Z</time></trkpt>
        <trkpt lat="28.6732359" lon="105.6428996"><ele>728.79</ele><time>2026-04-14T18:38:13.000Z</time></trkpt>
        <trkpt lat="28.6732111" lon="105.6430056"><ele>729.4</ele><time>2026-04-14T18:38:25.000Z</time></trkpt>
        <trkpt lat="28.6731808" lon="105.6431106"><ele>729.44</ele><time>2026-04-14T18:38:39.000Z</time></trkpt>
        <trkpt lat="28.6731331" lon="105.6432079"><ele>729.08</ele><time>2026-04-14T18:38:53.000Z</time></trkpt>
        <trkpt lat="28.6730527" lon="105.6432762"><ele>728.92</ele><time>2026-04-14T18:39:07.000Z</time></trkpt>
        <trkpt lat="28.6730859" lon="105.6432504"><ele>728.61</ele><time>2026-04-14T18:39:27.000Z</time></trkpt>
        <trkpt lat="28.6731508" lon="105.6431695"><ele>727.66</ele><time>2026-04-14T18:39:37.000Z</time></trkpt>
        <trkpt lat="28.6732436" lon="105.6431624"><ele>726.9</ele><time>2026-04-14T18:39:53.000Z</time></trkpt>
        <trkpt lat="28.6732986" lon="105.6432435"><ele>726.69</ele><time>2026-04-14T18:40:09.000Z</time></trkpt>
        <trkpt lat="28.6732922" lon="105.6433562"><ele>727.17</ele><time>2026-04-14T18:40:21.000Z</time></trkpt>
        <trkpt lat="28.6733171" lon="105.6433249"><ele>728.17</ele><time>2026-04-14T18:40:47.000Z</time></trkpt>
        <trkpt lat="28.6733395" lon="105.643229"><ele>729</ele><time>2026-04-14T18:40:57.000Z</time></trkpt>
        <trkpt lat="28.6734122" lon="105.6432052"><ele>729.26</ele><time>2026-04-14T18:41:09.000Z</time></trkpt>
        <trkpt lat="28.6734736" lon="105.6431215"><ele>729.75</ele><time>2026-04-14T18:41:23.000Z</time></trkpt>
        <trkpt lat="28.6735581" lon="105.6430592"><ele>730.37</ele><time>2026-04-14T18:41:41.000Z</time></trkpt>
        <trkpt lat="28.6735615" lon="105.6431205"><ele>732.23</ele><time>2026-04-14T18:41:55.000Z</time></trkpt>
        <trkpt lat="28.6735234" lon="105.6432223"><ele>734.37</ele><time>2026-04-14T18:42:05.000Z</time></trkpt>
        <trkpt lat="28.6734851" lon="105.6433336"><ele>735.76</ele><time>2026-04-14T18:42:15.000Z</time></trkpt>
        <trkpt lat="28.6734583" lon="105.6434577"><ele>736.42</ele><time>2026-04-14T18:42:27.000Z</time></trkpt>
        <trkpt lat="28.6734768" lon="105.6435742"><ele>736.8</ele><time>2026-04-14T18:42:39.000Z</time></trkpt>
        <trkpt lat="28.6735524" lon="105.6436578"><ele>736.67</ele><time>2026-04-14T18:42:51.000Z</time></trkpt>
        <trkpt lat="28.6736555" lon="105.6436671"><ele>735.69</ele><time>2026-04-14T18:43:07.000Z</time></trkpt>
        <trkpt lat="28.6737643" lon="105.6436517"><ele>735.05</ele><time>2026-04-14T18:43:23.000Z</time></trkpt>
        <trkpt lat="28.6738577" lon="105.6436046"><ele>735.12</ele><time>2026-04-14T18:43:35.000Z</time></trkpt>
        <trkpt lat="28.6739418" lon="105.6435497"><ele>735.71</ele><time>2026-04-14T18:43:45.000Z</time></trkpt>
        <trkpt lat="28.6740159" lon="105.6434733"><ele>736.7</ele><time>2026-04-14T18:43:59.000Z</time></trkpt>
        <trkpt lat="28.6740717" lon="105.6433826"><ele>737.6</ele><time>2026-04-14T18:44:11.000Z</time></trkpt>
        <trkpt lat="28.6741502" lon="105.6433431"><ele>738.42</ele><time>2026-04-14T18:44:37.000Z</time></trkpt>
        <trkpt lat="28.6742422" lon="105.6433381"><ele>738.41</ele><time>2026-04-14T18:44:53.000Z</time></trkpt>
        <trkpt lat="28.6743311" lon="105.6433854"><ele>737.98</ele><time>2026-04-14T18:45:03.000Z</time></trkpt>
        <trkpt lat="28.6744329" lon="105.6434165"><ele>737.13</ele><time>2026-04-14T18:45:13.000Z</time></trkpt>
        <trkpt lat="28.6745277" lon="105.643441"><ele>736.38</ele><time>2026-04-14T18:45:27.000Z</time></trkpt>
        <trkpt lat="28.6746254" lon="105.6434842"><ele>736.35</ele><time>2026-04-14T18:45:39.000Z</time></trkpt>
        <trkpt lat="28.6747153" lon="105.6435301"><ele>736.28</ele><time>2026-04-14T18:45:49.000Z</time></trkpt>
        <trkpt lat="28.6748083" lon="105.6435596"><ele>735.77</ele><time>2026-04-14T18:45:59.000Z</time></trkpt>
        <trkpt lat="28.6748966" lon="105.6435909"><ele>734.06</ele><time>2026-04-14T18:46:33.000Z</time></trkpt>
        <trkpt lat="28.6749906" lon="105.6436272"><ele>735.2</ele><time>2026-04-14T18:46:47.000Z</time></trkpt>
        <trkpt lat="28.675107" lon="105.6436554"><ele>735.5</ele><time>2026-04-14T18:47:35.000Z</time></trkpt>
        <trkpt lat="28.6752077" lon="105.643678"><ele>735.11</ele><time>2026-04-14T18:47:45.000Z</time></trkpt>
        <trkpt lat="28.6752987" lon="105.6437038"><ele>734.63</ele><time>2026-04-14T18:47:55.000Z</time></trkpt>
        <trkpt lat="28.6753877" lon="105.6437602"><ele>734.15</ele><time>2026-04-14T18:48:05.000Z</time></trkpt>
        <trkpt lat="28.6754639" lon="105.6437326"><ele>732.41</ele><time>2026-04-14T18:48:23.000Z</time></trkpt>
        <trkpt lat="28.675541" lon="105.6436827"><ele>728.4</ele><time>2026-04-14T18:48:39.000Z</time></trkpt>
        <trkpt lat="28.6756144" lon="105.6437223"><ele>724.32</ele><time>2026-04-14T18:48:51.000Z</time></trkpt>
        <trkpt lat="28.6756968" lon="105.6437878"><ele>721.43</ele><time>2026-04-14T18:49:01.000Z</time></trkpt>
        <trkpt lat="28.6757804" lon="105.6438546"><ele>720.68</ele><time>2026-04-14T18:49:15.000Z</time></trkpt>
        <trkpt lat="28.6758455" lon="105.64394"><ele>722.58</ele><time>2026-04-14T18:49:31.000Z</time></trkpt>
        <trkpt lat="28.675886" lon="105.6440367"><ele>725.77</ele><time>2026-04-14T18:49:47.000Z</time></trkpt>
        <trkpt lat="28.6759098" lon="105.6441469"><ele>729.57</ele><time>2026-04-14T18:50:07.000Z</time></trkpt>
        <trkpt lat="28.6759429" lon="105.6442491"><ele>733.37</ele><time>2026-04-14T18:50:15.000Z</time></trkpt>
        <trkpt lat="28.6759589" lon="105.6443518"><ele>736.05</ele><time>2026-04-14T18:50:29.000Z</time></trkpt>
        <trkpt lat="28.6759466" lon="105.6444706"><ele>739.3</ele><time>2026-04-14T18:50:41.000Z</time></trkpt>
        <trkpt lat="28.6759163" lon="105.6445774"><ele>742.05</ele><time>2026-04-14T18:50:55.000Z</time></trkpt>
        <trkpt lat="28.6758704" lon="105.6446776"><ele>742.46</ele><time>2026-04-14T18:51:11.000Z</time></trkpt>
        <trkpt lat="28.6758234" lon="105.644773"><ele>741.4</ele><time>2026-04-14T18:51:29.000Z</time></trkpt>
        <trkpt lat="28.6758018" lon="105.6448758"><ele>739.85</ele><time>2026-04-14T18:51:47.000Z</time></trkpt>
        <trkpt lat="28.6757167" lon="105.6448517"><ele>737.33</ele><time>2026-04-14T18:59:21.000Z</time></trkpt>
        <trkpt lat="28.6756817" lon="105.6447433"><ele>728.93</ele><time>2026-04-14T18:59:41.000Z</time></trkpt>
        <trkpt lat="28.6756312" lon="105.6446547"><ele>723.07</ele><time>2026-04-14T19:00:13.000Z</time></trkpt>
        <trkpt lat="28.6755663" lon="105.6445812"><ele>718.61</ele><time>2026-04-14T19:00:29.000Z</time></trkpt>
        <trkpt lat="28.6754681" lon="105.6445439"><ele>715.64</ele><time>2026-04-14T19:01:11.000Z</time></trkpt>
        <trkpt lat="28.675361" lon="105.6445664"><ele>713.77</ele><time>2026-04-14T19:02:09.000Z</time></trkpt>
        <trkpt lat="28.6752816" lon="105.6446396"><ele>713.01</ele><time>2026-04-14T19:02:33.000Z</time></trkpt>
        <trkpt lat="28.6752017" lon="105.6447543"><ele>711.84</ele><time>2026-04-14T19:03:03.000Z</time></trkpt>
        <trkpt lat="28.675295" lon="105.6448183"><ele>709.93</ele><time>2026-04-14T19:04:31.000Z</time></trkpt>
        <trkpt lat="28.675385" lon="105.644855"><ele>706.31</ele><time>2026-04-14T19:09:17.000Z</time></trkpt>
        <trkpt lat="28.6754667" lon="105.6449183"><ele>701.7</ele><time>2026-04-14T19:09:45.000Z</time></trkpt>
        <trkpt lat="28.6755117" lon="105.6450099"><ele>698.3</ele><time>2026-04-14T19:10:03.000Z</time></trkpt>
        <trkpt lat="28.6755142" lon="105.6451128"><ele>696.02</ele><time>2026-04-14T19:10:21.000Z</time></trkpt>
        <trkpt lat="28.675453" lon="105.6451844"><ele>694.08</ele><time>2026-04-14T19:10:35.000Z</time></trkpt>
        <trkpt lat="28.675372" lon="105.6451439"><ele>692.58</ele><time>2026-04-14T19:10:55.000Z</time></trkpt>
        <trkpt lat="28.6752796" lon="105.6450907"><ele>691.13</ele><time>2026-04-14T19:11:49.000Z</time></trkpt>
        <trkpt lat="28.6751758" lon="105.6450972"><ele>689.52</ele><time>2026-04-14T19:12:01.000Z</time></trkpt>
        <trkpt lat="28.6751218" lon="105.6451799"><ele>688.14</ele><time>2026-04-14T19:12:31.000Z</time></trkpt>
        <trkpt lat="28.6750555" lon="105.6452643"><ele>688.68</ele><time>2026-04-14T19:12:57.000Z</time></trkpt>
        <trkpt lat="28.6750219" lon="105.645366"><ele>690.15</ele><time>2026-04-14T19:13:31.000Z</time></trkpt>
        <trkpt lat="28.6750627" lon="105.6454601"><ele>693.66</ele><time>2026-04-14T19:14:01.000Z</time></trkpt>
        <trkpt lat="28.6751425" lon="105.6455303"><ele>696.47</ele><time>2026-04-14T19:14:29.000Z</time></trkpt>
        <trkpt lat="28.6752617" lon="105.64553"><ele>700.1</ele><time>2026-04-14T19:19:41.000Z</time></trkpt>
        <trkpt lat="28.67536" lon="105.6455533"><ele>703.24</ele><time>2026-04-14T19:19:51.000Z</time></trkpt>
        <trkpt lat="28.6754612" lon="105.6455781"><ele>704.47</ele><time>2026-04-14T19:20:01.000Z</time></trkpt>
        <trkpt lat="28.6755564" lon="105.6456018"><ele>705.34</ele><time>2026-04-14T19:20:11.000Z</time></trkpt>
        <trkpt lat="28.6756498" lon="105.6456202"><ele>706.74</ele><time>2026-04-14T19:20:19.000Z</time></trkpt>
        <trkpt lat="28.6757401" lon="105.6456391"><ele>708.1</ele><time>2026-04-14T19:20:29.000Z</time></trkpt>
        <trkpt lat="28.6758296" lon="105.6456573"><ele>709.65</ele><time>2026-04-14T19:20:39.000Z</time></trkpt>
        <trkpt lat="28.6759203" lon="105.6456929"><ele>711.26</ele><time>2026-04-14T19:20:49.000Z</time></trkpt>
        <trkpt lat="28.6760153" lon="105.6457275"><ele>712.74</ele><time>2026-04-14T19:20:59.000Z</time></trkpt>
        <trkpt lat="28.6761133" lon="105.645767"><ele>714.49</ele><time>2026-04-14T19:21:09.000Z</time></trkpt>
        <trkpt lat="28.6762072" lon="105.6458155"><ele>715.96</ele><time>2026-04-14T19:21:19.000Z</time></trkpt>
        <trkpt lat="28.6762867" lon="105.6458792"><ele>717.61</ele><time>2026-04-14T19:21:29.000Z</time></trkpt>
        <trkpt lat="28.6762458" lon="105.6458589"><ele>719.02</ele><time>2026-04-14T19:21:57.000Z</time></trkpt>
        <trkpt lat="28.6761581" lon="105.6458103"><ele>720.91</ele><time>2026-04-14T19:22:09.000Z</time></trkpt>
        <trkpt lat="28.6760565" lon="105.645768"><ele>722.19</ele><time>2026-04-14T19:22:19.000Z</time></trkpt>
        <trkpt lat="28.6759536" lon="105.6457327"><ele>722.41</ele><time>2026-04-14T19:22:29.000Z</time></trkpt>
        <trkpt lat="28.6758531" lon="105.6456917"><ele>721.8</ele><time>2026-04-14T19:22:39.000Z</time></trkpt>
        <trkpt lat="28.6757545" lon="105.6456553"><ele>721.24</ele><time>2026-04-14T19:22:49.000Z</time></trkpt>
        <trkpt lat="28.6756951" lon="105.6456699"><ele>721.14</ele><time>2026-04-14T19:23:13.000Z</time></trkpt>
        <trkpt lat="28.6757408" lon="105.645722"><ele>720.43</ele><time>2026-04-14T19:23:35.000Z</time></trkpt>
        <trkpt lat="28.6758066" lon="105.6458101"><ele>719.99</ele><time>2026-04-14T19:24:01.000Z</time></trkpt>
        <trkpt lat="28.6757867" lon="105.6459016"><ele>720.81</ele><time>2026-04-14T19:24:41.000Z</time></trkpt>
        <trkpt lat="28.6757106" lon="105.6459553"><ele>722.53</ele><time>2026-04-14T19:25:05.000Z</time></trkpt>
        <trkpt lat="28.6756426" lon="105.6460319"><ele>726.21</ele><time>2026-04-14T19:25:19.000Z</time></trkpt>
        <trkpt lat="28.6756657" lon="105.6461178"><ele>729.56</ele><time>2026-04-14T19:25:37.000Z</time></trkpt>
        <trkpt lat="28.6757313" lon="105.6462024"><ele>733.97</ele><time>2026-04-14T19:25:55.000Z</time></trkpt>
        <trkpt lat="28.6757972" lon="105.6462908"><ele>737.81</ele><time>2026-04-14T19:26:07.000Z</time></trkpt>
        <trkpt lat="28.6758638" lon="105.6463888"><ele>740.77</ele><time>2026-04-14T19:26:19.000Z</time></trkpt>
        <trkpt lat="28.6759407" lon="105.6464586"><ele>743.45</ele><time>2026-04-14T19:26:31.000Z</time></trkpt>
        <trkpt lat="28.6759926" lon="105.6463908"><ele>746.4</ele><time>2026-04-14T19:26:51.000Z</time></trkpt>
        <trkpt lat="28.6760804" lon="105.6463479"><ele>749.5</ele><time>2026-04-14T19:27:05.000Z</time></trkpt>
        <trkpt lat="28.6761795" lon="105.646361"><ele>751.39</ele><time>2026-04-14T19:27:15.000Z</time></trkpt>
        <trkpt lat="28.6762774" lon="105.6464025"><ele>752.73</ele><time>2026-04-14T19:27:27.000Z</time></trkpt>
        <trkpt lat="28.6763721" lon="105.6464441"><ele>754.18</ele><time>2026-04-14T19:27:37.000Z</time></trkpt>
        <trkpt lat="28.6764537" lon="105.6465009"><ele>755.22</ele><time>2026-04-14T19:27:45.000Z</time></trkpt>
        <trkpt lat="28.6765178" lon="105.6465859"><ele>756.2</ele><time>2026-04-14T19:27:57.000Z</time></trkpt>
        <trkpt lat="28.676581" lon="105.6466771"><ele>757.02</ele><time>2026-04-14T19:28:19.000Z</time></trkpt>
        <trkpt lat="28.6766578" lon="105.6467482"><ele>757.05</ele><time>2026-04-14T19:28:31.000Z</time></trkpt>
        <trkpt lat="28.6767303" lon="105.6468167"><ele>755.78</ele><time>2026-04-14T19:28:43.000Z</time></trkpt>
        <trkpt lat="28.676782" lon="105.6469133"><ele>753.73</ele><time>2026-04-14T19:28:59.000Z</time></trkpt>
        <trkpt lat="28.6767774" lon="105.6470216"><ele>751.18</ele><time>2026-04-14T19:29:17.000Z</time></trkpt>
        <trkpt lat="28.6768322" lon="105.6471079"><ele>748.26</ele><time>2026-04-14T19:29:37.000Z</time></trkpt>
        <trkpt lat="28.676925" lon="105.6471521"><ele>746.82</ele><time>2026-04-14T19:29:49.000Z</time></trkpt>
        <trkpt lat="28.6770215" lon="105.6471664"><ele>745.35</ele><time>2026-04-14T19:30:05.000Z</time></trkpt>
        <trkpt lat="28.6771218" lon="105.6471636"><ele>744.47</ele><time>2026-04-14T19:30:27.000Z</time></trkpt>
        <trkpt lat="28.6772367" lon="105.6471583"><ele>745.08</ele><time>2026-04-14T19:31:45.000Z</time></trkpt>
        <trkpt lat="28.677335" lon="105.6472033"><ele>746.68</ele><time>2026-04-14T19:31:55.000Z</time></trkpt>
        <trkpt lat="28.6774249" lon="105.6472653"><ele>747.94</ele><time>2026-04-14T19:32:05.000Z</time></trkpt>
        <trkpt lat="28.6774695" lon="105.6473636"><ele>748.95</ele><time>2026-04-14T19:32:15.000Z</time></trkpt>
        <trkpt lat="28.6774736" lon="105.647481"><ele>748.2</ele><time>2026-04-14T19:32:37.000Z</time></trkpt>
        <trkpt lat="28.6775146" lon="105.6475751"><ele>744.29</ele><time>2026-04-14T19:32:47.000Z</time></trkpt>
        <trkpt lat="28.6774511" lon="105.6475835"><ele>739.99</ele><time>2026-04-14T19:33:05.000Z</time></trkpt>
        <trkpt lat="28.67751" lon="105.647555"><ele>737.33</ele><time>2026-04-14T19:34:23.000Z</time></trkpt>
        <trkpt lat="28.6776083" lon="105.6475517"><ele>737.4</ele><time>2026-04-14T19:34:31.000Z</time></trkpt>
        <trkpt lat="28.6777067" lon="105.6475229"><ele>736.07</ele><time>2026-04-14T19:34:39.000Z</time></trkpt>
        <trkpt lat="28.6777973" lon="105.6474756"><ele>735.31</ele><time>2026-04-14T19:34:47.000Z</time></trkpt>
        <trkpt lat="28.6778579" lon="105.6474611"><ele>735.52</ele><time>2026-04-14T19:35:05.000Z</time></trkpt>
        <trkpt lat="28.6778829" lon="105.6475395"><ele>738.05</ele><time>2026-04-14T19:35:19.000Z</time></trkpt>
        <trkpt lat="28.6778328" lon="105.647631"><ele>740.82</ele><time>2026-04-14T19:35:33.000Z</time></trkpt>
        <trkpt lat="28.6777543" lon="105.6477167"><ele>743.01</ele><time>2026-04-14T19:35:45.000Z</time></trkpt>
        <trkpt lat="28.6776687" lon="105.6477929"><ele>745.76</ele><time>2026-04-14T19:36:07.000Z</time></trkpt>
        <trkpt lat="28.6775863" lon="105.6478614"><ele>747.88</ele><time>2026-04-14T19:36:21.000Z</time></trkpt>
        <trkpt lat="28.6774991" lon="105.6479343"><ele>749.4</ele><time>2026-04-14T19:36:45.000Z</time></trkpt>
        <trkpt lat="28.6774191" lon="105.6479953"><ele>750.22</ele><time>2026-04-14T19:36:55.000Z</time></trkpt>
        <trkpt lat="28.6773338" lon="105.648063"><ele>750.81</ele><time>2026-04-14T19:37:07.000Z</time></trkpt>
        <trkpt lat="28.6772592" lon="105.6481288"><ele>752.27</ele><time>2026-04-14T19:37:23.000Z</time></trkpt>
        <trkpt lat="28.6771814" lon="105.6481851"><ele>754.22</ele><time>2026-04-14T19:37:33.000Z</time></trkpt>
        <trkpt lat="28.6770946" lon="105.6482479"><ele>755.29</ele><time>2026-04-14T19:37:45.000Z</time></trkpt>
        <trkpt lat="28.6770168" lon="105.6483113"><ele>756.75</ele><time>2026-04-14T19:37:59.000Z</time></trkpt>
        <trkpt lat="28.6769279" lon="105.648376"><ele>758.88</ele><time>2026-04-14T19:38:15.000Z</time></trkpt>
        <trkpt lat="28.6768384" lon="105.6484374"><ele>759.88</ele><time>2026-04-14T19:38:27.000Z</time></trkpt>
        <trkpt lat="28.6767542" lon="105.6485113"><ele>761.09</ele><time>2026-04-14T19:38:39.000Z</time></trkpt>
        <trkpt lat="28.6766734" lon="105.648581"><ele>762.56</ele><time>2026-04-14T19:38:49.000Z</time></trkpt>
        <trkpt lat="28.6766013" lon="105.6486512"><ele>762.71</ele><time>2026-04-14T19:38:59.000Z</time></trkpt>
        <trkpt lat="28.6765208" lon="105.6487252"><ele>762.14</ele><time>2026-04-14T19:39:09.000Z</time></trkpt>
        <trkpt lat="28.6764404" lon="105.6487854"><ele>762.04</ele><time>2026-04-14T19:39:17.000Z</time></trkpt>
        <trkpt lat="28.6763501" lon="105.6488454"><ele>762.24</ele><time>2026-04-14T19:39:27.000Z</time></trkpt>
        <trkpt lat="28.6762576" lon="105.6488972"><ele>762.74</ele><time>2026-04-14T19:39:37.000Z</time></trkpt>
        <trkpt lat="28.6761898" lon="105.6489876"><ele>762.64</ele><time>2026-04-14T19:39:49.000Z</time></trkpt>
        <trkpt lat="28.6761178" lon="105.6490777"><ele>762.02</ele><time>2026-04-14T19:39:59.000Z</time></trkpt>
        <trkpt lat="28.6760481" lon="105.6491685"><ele>761.97</ele><time>2026-04-14T19:40:09.000Z</time></trkpt>
        <trkpt lat="28.6759951" lon="105.6492648"><ele>761.81</ele><time>2026-04-14T19:40:19.000Z</time></trkpt>
        <trkpt lat="28.6759216" lon="105.6493438"><ele>762.28</ele><time>2026-04-14T19:40:29.000Z</time></trkpt>
        <trkpt lat="28.6758358" lon="105.6494185"><ele>762.89</ele><time>2026-04-14T19:40:39.000Z</time></trkpt>
        <trkpt lat="28.6757498" lon="105.6494696"><ele>763.71</ele><time>2026-04-14T19:40:49.000Z</time></trkpt>
        <trkpt lat="28.6756547" lon="105.6494464"><ele>764.48</ele><time>2026-04-14T19:40:59.000Z</time></trkpt>
        <trkpt lat="28.6755718" lon="105.6493876"><ele>765.35</ele><time>2026-04-14T19:41:07.000Z</time></trkpt>
        <trkpt lat="28.6754766" lon="105.6493394"><ele>766.15</ele><time>2026-04-14T19:41:17.000Z</time></trkpt>
        <trkpt lat="28.6753841" lon="105.6493361"><ele>766.73</ele><time>2026-04-14T19:41:25.000Z</time></trkpt>
        <trkpt lat="28.6752932" lon="105.6493835"><ele>766.85</ele><time>2026-04-14T19:41:35.000Z</time></trkpt>
        <trkpt lat="28.6752419" lon="105.6494855"><ele>767.47</ele><time>2026-04-14T19:41:45.000Z</time></trkpt>
        <trkpt lat="28.6752187" lon="105.649535"><ele>767.78</ele><time>2026-04-14T19:41:55.000Z</time></trkpt>
        <trkpt lat="28.6751724" lon="105.6496056"><ele>768.01</ele><time>2026-04-14T19:42:11.000Z</time></trkpt>
        <trkpt lat="28.6751524" lon="105.6497017"><ele>767.87</ele><time>2026-04-14T19:42:19.000Z</time></trkpt>
        <trkpt lat="28.675172" lon="105.6498111"><ele>766.68</ele><time>2026-04-14T19:42:29.000Z</time></trkpt>
        <trkpt lat="28.6752145" lon="105.6499259"><ele>764.84</ele><time>2026-04-14T19:42:37.000Z</time></trkpt>
        <trkpt lat="28.6752562" lon="105.6500435"><ele>763.14</ele><time>2026-04-14T19:42:47.000Z</time></trkpt>
        <trkpt lat="28.6752972" lon="105.6501646"><ele>761.75</ele><time>2026-04-14T19:42:57.000Z</time></trkpt>
        <trkpt lat="28.6753566" lon="105.6502536"><ele>760.78</ele><time>2026-04-14T19:43:05.000Z</time></trkpt>
        <trkpt lat="28.6754344" lon="105.6503278"><ele>760.19</ele><time>2026-04-14T19:43:15.000Z</time></trkpt>
        <trkpt lat="28.675445" lon="105.6503442"><ele>759.42</ele><time>2026-04-14T19:43:23.000Z</time></trkpt>
        <trkpt lat="28.6753941" lon="105.6502608"><ele>758.46</ele><time>2026-04-14T19:43:45.000Z</time></trkpt>
        <trkpt lat="28.6753437" lon="105.6501363"><ele>757.83</ele><time>2026-04-14T19:43:57.000Z</time></trkpt>
        <trkpt lat="28.6752969" lon="105.6500181"><ele>757.65</ele><time>2026-04-14T19:44:05.000Z</time></trkpt>
        <trkpt lat="28.6752879" lon="105.6498984"><ele>757.54</ele><time>2026-04-14T19:44:23.000Z</time></trkpt>
        <trkpt lat="28.6752624" lon="105.6497887"><ele>757.78</ele><time>2026-04-14T19:44:43.000Z</time></trkpt>
        <trkpt lat="28.6752696" lon="105.6496781"><ele>758.31</ele><time>2026-04-14T19:44:55.000Z</time></trkpt>
        <trkpt lat="28.6752901" lon="105.6497265"><ele>758.82</ele><time>2026-04-14T19:45:23.000Z</time></trkpt>
        <trkpt lat="28.67535" lon="105.6498144"><ele>760.92</ele><time>2026-04-14T19:45:35.000Z</time></trkpt>
        <trkpt lat="28.675429" lon="105.6498931"><ele>763.53</ele><time>2026-04-14T19:45:55.000Z</time></trkpt>
        <trkpt lat="28.6755156" lon="105.6499593"><ele>767.05</ele><time>2026-04-14T19:46:09.000Z</time></trkpt>
        <trkpt lat="28.6756099" lon="105.6500128"><ele>770.17</ele><time>2026-04-14T19:46:21.000Z</time></trkpt>
        <trkpt lat="28.6756464" lon="105.6500307"><ele>773.84</ele><time>2026-04-14T19:46:31.000Z</time></trkpt>
        <trkpt lat="28.6757229" lon="105.6500671"><ele>776.83</ele><time>2026-04-14T19:46:57.000Z</time></trkpt>
        <trkpt lat="28.6758077" lon="105.6501136"><ele>779.44</ele><time>2026-04-14T19:47:09.000Z</time></trkpt>
        <trkpt lat="28.6758984" lon="105.6501688"><ele>781.53</ele><time>2026-04-14T19:47:29.000Z</time></trkpt>
        <trkpt lat="28.6759815" lon="105.6502242"><ele>783.93</ele><time>2026-04-14T19:47:43.000Z</time></trkpt>
        <trkpt lat="28.6760749" lon="105.6502777"><ele>786.15</ele><time>2026-04-14T19:48:29.000Z</time></trkpt>
        <trkpt lat="28.6761607" lon="105.6503425"><ele>787.33</ele><time>2026-04-14T19:48:43.000Z</time></trkpt>
        <trkpt lat="28.6762381" lon="105.6504152"><ele>788.78</ele><time>2026-04-14T19:48:55.000Z</time></trkpt>
        <trkpt lat="28.6762913" lon="105.6505039"><ele>790.42</ele><time>2026-04-14T19:49:05.000Z</time></trkpt>
        <trkpt lat="28.6763462" lon="105.6506138"><ele>793.25</ele><time>2026-04-14T19:49:15.000Z</time></trkpt>
        <trkpt lat="28.6763908" lon="105.6507252"><ele>796.71</ele><time>2026-04-14T19:49:25.000Z</time></trkpt>
        <trkpt lat="28.6764738" lon="105.6507414"><ele>799.72</ele><time>2026-04-14T19:49:39.000Z</time></trkpt>
        <trkpt lat="28.6765741" lon="105.6507168"><ele>802.21</ele><time>2026-04-14T19:49:49.000Z</time></trkpt>
        <trkpt lat="28.6766543" lon="105.6507557"><ele>804.05</ele><time>2026-04-14T19:49:59.000Z</time></trkpt>
        <trkpt lat="28.6767064" lon="105.6508389"><ele>803.26</ele><time>2026-04-14T19:50:25.000Z</time></trkpt>
        <trkpt lat="28.6767633" lon="105.650785"><ele>802.03</ele><time>2026-04-14T19:53:01.000Z</time></trkpt>
        <trkpt lat="28.6766617" lon="105.6508117"><ele>800.25</ele><time>2026-04-14T19:53:07.000Z</time></trkpt>
        <trkpt lat="28.6765713" lon="105.6508623"><ele>799.11</ele><time>2026-04-14T19:53:21.000Z</time></trkpt>
        <trkpt lat="28.6767183" lon="105.6508383"><ele>798.89</ele><time>2026-04-14T19:59:59.000Z</time></trkpt>
        <trkpt lat="28.6765767" lon="105.6508817"><ele>797.78</ele><time>2026-04-14T20:20:01.000Z</time></trkpt>
        <trkpt lat="28.6766783" lon="105.650855"><ele>792.28</ele><time>2026-04-14T20:41:03.000Z</time></trkpt>
        <trkpt lat="28.6767783" lon="105.65083"><ele>785.92</ele><time>2026-04-14T20:42:23.000Z</time></trkpt>
        <trkpt lat="28.6766867" lon="105.6508417"><ele>783.93</ele><time>2026-04-14T20:43:13.000Z</time></trkpt>
        <trkpt lat="28.6765967" lon="105.6508767"><ele>783.15</ele><time>2026-04-14T20:47:01.000Z</time></trkpt>
        <trkpt lat="28.67674" lon="105.6507833"><ele>781.49</ele><time>2026-04-14T20:48:35.000Z</time></trkpt>
        <trkpt lat="28.6766583" lon="105.650855"><ele>782.74</ele><time>2026-04-14T20:49:59.000Z</time></trkpt>
        <trkpt lat="28.6766767" lon="105.6509683"><ele>784.96</ele><time>2026-04-14T20:50:11.000Z</time></trkpt>
        <trkpt lat="28.6765917" lon="105.6512667"><ele>786.23</ele><time>2026-04-14T20:52:34.000Z</time></trkpt>
        <trkpt lat="28.676665" lon="105.6509783"><ele>786.4</ele><time>2026-04-14T20:52:42.000Z</time></trkpt>
        <trkpt lat="28.6766805" lon="105.6508621"><ele>785.97</ele><time>2026-04-14T20:52:54.000Z</time></trkpt>
        <trkpt lat="28.6766858" lon="105.6507621"><ele>787.19</ele><time>2026-04-14T20:53:42.000Z</time></trkpt>
        <trkpt lat="28.6766324" lon="105.6506957"><ele>788.44</ele><time>2026-04-14T20:54:06.000Z</time></trkpt>
        <trkpt lat="28.6765502" lon="105.6506486"><ele>790.01</ele><time>2026-04-14T20:54:18.000Z</time></trkpt>
        <trkpt lat="28.6764526" lon="105.6506669"><ele>790.7</ele><time>2026-04-14T20:54:56.000Z</time></trkpt>
        <trkpt lat="28.6764421" lon="105.6507671"><ele>791.86</ele><time>2026-04-14T20:55:10.000Z</time></trkpt>
        <trkpt lat="28.676494" lon="105.6508703"><ele>792.61</ele><time>2026-04-14T20:55:22.000Z</time></trkpt>
        <trkpt lat="28.6765642" lon="105.6509711"><ele>792.95</ele><time>2026-04-14T20:55:32.000Z</time></trkpt>
        <trkpt lat="28.6766196" lon="105.6510731"><ele>793.27</ele><time>2026-04-14T20:55:44.000Z</time></trkpt>
        <trkpt lat="28.6766597" lon="105.651186"><ele>793.15</ele><time>2026-04-14T20:55:56.000Z</time></trkpt>
        <trkpt lat="28.6766679" lon="105.6512981"><ele>793.56</ele><time>2026-04-14T20:56:10.000Z</time></trkpt>
        <trkpt lat="28.67676" lon="105.6512883"><ele>793.41</ele><time>2026-04-14T20:58:00.000Z</time></trkpt>
        <trkpt lat="28.6768467" lon="105.651245"><ele>792.84</ele><time>2026-04-14T20:58:16.000Z</time></trkpt>
        <trkpt lat="28.6769362" lon="105.6512355"><ele>793.73</ele><time>2026-04-14T20:58:26.000Z</time></trkpt>
        <trkpt lat="28.6770261" lon="105.6512204"><ele>795.61</ele><time>2026-04-14T20:59:08.000Z</time></trkpt>
        <trkpt lat="28.6770887" lon="105.6511524"><ele>795.78</ele><time>2026-04-14T20:59:16.000Z</time></trkpt>
        <trkpt lat="28.6771163" lon="105.6510412"><ele>795.92</ele><time>2026-04-14T20:59:40.000Z</time></trkpt>
        <trkpt lat="28.677155" lon="105.6509304"><ele>795.74</ele><time>2026-04-14T21:00:24.000Z</time></trkpt>
        <trkpt lat="28.6771779" lon="105.6508109"><ele>795.25</ele><time>2026-04-14T21:00:32.000Z</time></trkpt>
        <trkpt lat="28.6772209" lon="105.6507153"><ele>793.85</ele><time>2026-04-14T21:00:46.000Z</time></trkpt>
        <trkpt lat="28.6772612" lon="105.65062"><ele>792.28</ele><time>2026-04-14T21:01:08.000Z</time></trkpt>
        <trkpt lat="28.6772338" lon="105.6505192"><ele>790.4</ele><time>2026-04-14T21:01:22.000Z</time></trkpt>
        <trkpt lat="28.6771904" lon="105.6504187"><ele>789.49</ele><time>2026-04-14T21:01:30.000Z</time></trkpt>
        <trkpt lat="28.6771686" lon="105.6503147"><ele>788.94</ele><time>2026-04-14T21:01:40.000Z</time></trkpt>
        <trkpt lat="28.6771324" lon="105.6501994"><ele>788.58</ele><time>2026-04-14T21:01:50.000Z</time></trkpt>
        <trkpt lat="28.6770901" lon="105.6500841"><ele>787.86</ele><time>2026-04-14T21:02:00.000Z</time></trkpt>
        <trkpt lat="28.6770314" lon="105.6499744"><ele>787.32</ele><time>2026-04-14T21:02:10.000Z</time></trkpt>
        <trkpt lat="28.6769501" lon="105.6498947"><ele>786.41</ele><time>2026-04-14T21:02:20.000Z</time></trkpt>
        <trkpt lat="28.6768594" lon="105.6498372"><ele>784.21</ele><time>2026-04-14T21:02:30.000Z</time></trkpt>
        <trkpt lat="28.6767872" lon="105.6497561"><ele>782.05</ele><time>2026-04-14T21:02:40.000Z</time></trkpt>
        <trkpt lat="28.6767195" lon="105.6496779"><ele>780.1</ele><time>2026-04-14T21:02:50.000Z</time></trkpt>
        <trkpt lat="28.6766559" lon="105.649596"><ele>778.72</ele><time>2026-04-14T21:03:02.000Z</time></trkpt>
        <trkpt lat="28.6765783" lon="105.6495277"><ele>777.38</ele><time>2026-04-14T21:03:18.000Z</time></trkpt>
        <trkpt lat="28.676504" lon="105.6494533"><ele>776.01</ele><time>2026-04-14T21:03:28.000Z</time></trkpt>
        <trkpt lat="28.6764302" lon="105.6493659"><ele>774.41</ele><time>2026-04-14T21:03:42.000Z</time></trkpt>
        <trkpt lat="28.6764155" lon="105.6492575"><ele>772.73</ele><time>2026-04-14T21:03:52.000Z</time></trkpt>
        <trkpt lat="28.6764713" lon="105.6491685"><ele>771.17</ele><time>2026-04-14T21:04:02.000Z</time></trkpt>
        <trkpt lat="28.6765585" lon="105.6491093"><ele>770.84</ele><time>2026-04-14T21:04:12.000Z</time></trkpt>
        <trkpt lat="28.6766289" lon="105.6490333"><ele>770.82</ele><time>2026-04-14T21:04:20.000Z</time></trkpt>
        <trkpt lat="28.6766647" lon="105.6489305"><ele>770.86</ele><time>2026-04-14T21:04:28.000Z</time></trkpt>
        <trkpt lat="28.6766501" lon="105.6488279"><ele>771.22</ele><time>2026-04-14T21:04:36.000Z</time></trkpt>
        <trkpt lat="28.6765567" lon="105.6487858"><ele>771.55</ele><time>2026-04-14T21:04:44.000Z</time></trkpt>
        <trkpt lat="28.6764504" lon="105.6488191"><ele>770.15</ele><time>2026-04-14T21:04:52.000Z</time></trkpt>
        <trkpt lat="28.6763455" lon="105.6488732"><ele>767.77</ele><time>2026-04-14T21:05:02.000Z</time></trkpt>
        <trkpt lat="28.676235" lon="105.6488868"><ele>764.64</ele><time>2026-04-14T21:05:14.000Z</time></trkpt>
        <trkpt lat="28.6761282" lon="105.6489014"><ele>760.88</ele><time>2026-04-14T21:05:24.000Z</time></trkpt>
        <trkpt lat="28.6760304" lon="105.6489051"><ele>758.18</ele><time>2026-04-14T21:05:34.000Z</time></trkpt>
        <trkpt lat="28.6759326" lon="105.6489211"><ele>756.81</ele><time>2026-04-14T21:05:44.000Z</time></trkpt>
        <trkpt lat="28.6758272" lon="105.6489384"><ele>755.99</ele><time>2026-04-14T21:05:54.000Z</time></trkpt>
        <trkpt lat="28.6757276" lon="105.6489658"><ele>755.13</ele><time>2026-04-14T21:06:04.000Z</time></trkpt>
        <trkpt lat="28.6756329" lon="105.6489891"><ele>753.44</ele><time>2026-04-14T21:06:14.000Z</time></trkpt>
        <trkpt lat="28.6755287" lon="105.6490052"><ele>751.01</ele><time>2026-04-14T21:06:26.000Z</time></trkpt>
        <trkpt lat="28.6754232" lon="105.6490299"><ele>748.69</ele><time>2026-04-14T21:06:36.000Z</time></trkpt>
        <trkpt lat="28.675325" lon="105.6490617"><ele>747.01</ele><time>2026-04-14T21:06:44.000Z</time></trkpt>
        <trkpt lat="28.6752336" lon="105.6491158"><ele>746.41</ele><time>2026-04-14T21:06:54.000Z</time></trkpt>
        <trkpt lat="28.6751443" lon="105.6491739"><ele>746.15</ele><time>2026-04-14T21:07:04.000Z</time></trkpt>
        <trkpt lat="28.6750566" lon="105.6492218"><ele>746.51</ele><time>2026-04-14T21:07:14.000Z</time></trkpt>
        <trkpt lat="28.6749678" lon="105.64928"><ele>747.07</ele><time>2026-04-14T21:07:24.000Z</time></trkpt>
        <trkpt lat="28.674872" lon="105.6493144"><ele>747.43</ele><time>2026-04-14T21:07:34.000Z</time></trkpt>
        <trkpt lat="28.6747761" lon="105.6493421"><ele>747.67</ele><time>2026-04-14T21:07:44.000Z</time></trkpt>
        <trkpt lat="28.6746943" lon="105.6493947"><ele>747.08</ele><time>2026-04-14T21:07:54.000Z</time></trkpt>
        <trkpt lat="28.6746353" lon="105.649481"><ele>745.58</ele><time>2026-04-14T21:08:04.000Z</time></trkpt>
        <trkpt lat="28.6745927" lon="105.6495813"><ele>744.21</ele><time>2026-04-14T21:08:22.000Z</time></trkpt>
        <trkpt lat="28.6745433" lon="105.6496781"><ele>743.56</ele><time>2026-04-14T21:08:34.000Z</time></trkpt>
        <trkpt lat="28.6744521" lon="105.6497002"><ele>740.61</ele><time>2026-04-14T21:08:44.000Z</time></trkpt>
        <trkpt lat="28.6743688" lon="105.6496267"><ele>737.72</ele><time>2026-04-14T21:08:54.000Z</time></trkpt>
        <trkpt lat="28.6743092" lon="105.6495179"><ele>735.18</ele><time>2026-04-14T21:09:04.000Z</time></trkpt>
        <trkpt lat="28.6742626" lon="105.6494073"><ele>732.56</ele><time>2026-04-14T21:09:14.000Z</time></trkpt>
        <trkpt lat="28.6742236" lon="105.649303"><ele>730.43</ele><time>2026-04-14T21:09:22.000Z</time></trkpt>
        <trkpt lat="28.6741711" lon="105.6492129"><ele>729.17</ele><time>2026-04-14T21:09:34.000Z</time></trkpt>
        <trkpt lat="28.6740925" lon="105.6491681"><ele>728.28</ele><time>2026-04-14T21:09:42.000Z</time></trkpt>
        <trkpt lat="28.6739996" lon="105.6491385"><ele>727.94</ele><time>2026-04-14T21:09:52.000Z</time></trkpt>
        <trkpt lat="28.673898" lon="105.6491195"><ele>727.45</ele><time>2026-04-14T21:10:02.000Z</time></trkpt>
        <trkpt lat="28.6737985" lon="105.6490897"><ele>726.66</ele><time>2026-04-14T21:10:12.000Z</time></trkpt>
        <trkpt lat="28.6737387" lon="105.6490028"><ele>725.51</ele><time>2026-04-14T21:10:22.000Z</time></trkpt>
        <trkpt lat="28.6736928" lon="105.648891"><ele>723.31</ele><time>2026-04-14T21:10:34.000Z</time></trkpt>
        <trkpt lat="28.67363" lon="105.6487894"><ele>721.46</ele><time>2026-04-14T21:10:44.000Z</time></trkpt>
        <trkpt lat="28.6735593" lon="105.6486981"><ele>719.76</ele><time>2026-04-14T21:10:54.000Z</time></trkpt>
        <trkpt lat="28.6734757" lon="105.6486267"><ele>719</ele><time>2026-04-14T21:11:04.000Z</time></trkpt>
        <trkpt lat="28.6734128" lon="105.6485461"><ele>718.05</ele><time>2026-04-14T21:11:14.000Z</time></trkpt>
        <trkpt lat="28.673361" lon="105.6484449"><ele>717.51</ele><time>2026-04-14T21:11:24.000Z</time></trkpt>
        <trkpt lat="28.67331" lon="105.6483348"><ele>717.55</ele><time>2026-04-14T21:11:34.000Z</time></trkpt>
        <trkpt lat="28.6732434" lon="105.6482575"><ele>717.53</ele><time>2026-04-14T21:11:42.000Z</time></trkpt>
        <trkpt lat="28.6731593" lon="105.6482147"><ele>716.48</ele><time>2026-04-14T21:11:50.000Z</time></trkpt>
        <trkpt lat="28.6730693" lon="105.6481931"><ele>715.5</ele><time>2026-04-14T21:11:58.000Z</time></trkpt>
        <trkpt lat="28.6729709" lon="105.6481869"><ele>714.81</ele><time>2026-04-14T21:12:06.000Z</time></trkpt>
        <trkpt lat="28.6728718" lon="105.6482025"><ele>714.03</ele><time>2026-04-14T21:12:16.000Z</time></trkpt>
        <trkpt lat="28.6728947" lon="105.6481537"><ele>713.63</ele><time>2026-04-14T21:12:48.000Z</time></trkpt>
        <trkpt lat="28.6729353" lon="105.6480604"><ele>713.27</ele><time>2026-04-14T21:13:08.000Z</time></trkpt>
        <trkpt lat="28.6728946" lon="105.6479931"><ele>712.08</ele><time>2026-04-14T21:13:24.000Z</time></trkpt>
        <trkpt lat="28.6727923" lon="105.6479778"><ele>710.54</ele><time>2026-04-14T21:13:54.000Z</time></trkpt>
        <trkpt lat="28.6728236" lon="105.6480083"><ele>709.71</ele><time>2026-04-14T21:14:18.000Z</time></trkpt>
        <trkpt lat="28.672907" lon="105.6480592"><ele>710.35</ele><time>2026-04-14T21:14:38.000Z</time></trkpt>
        <trkpt lat="28.6728968" lon="105.6481449"><ele>712.05</ele><time>2026-04-14T21:15:10.000Z</time></trkpt>
        <trkpt lat="28.6728457" lon="105.6482528"><ele>713.27</ele><time>2026-04-14T21:15:22.000Z</time></trkpt>
        <trkpt lat="28.6728056" lon="105.6483815"><ele>716.08</ele><time>2026-04-14T21:15:30.000Z</time></trkpt>
        <trkpt lat="28.6727793" lon="105.6485033"><ele>718.67</ele><time>2026-04-14T21:15:40.000Z</time></trkpt>
        <trkpt lat="28.6727568" lon="105.6486161"><ele>719.67</ele><time>2026-04-14T21:15:50.000Z</time></trkpt>
        <trkpt lat="28.6727417" lon="105.6487295"><ele>719.43</ele><time>2026-04-14T21:16:00.000Z</time></trkpt>
        <trkpt lat="28.6727166" lon="105.6488393"><ele>719.2</ele><time>2026-04-14T21:16:10.000Z</time></trkpt>
        <trkpt lat="28.6726684" lon="105.6489464"><ele>719.16</ele><time>2026-04-14T21:16:20.000Z</time></trkpt>
        <trkpt lat="28.6725921" lon="105.6490226"><ele>720.29</ele><time>2026-04-14T21:16:32.000Z</time></trkpt>
        <trkpt lat="28.6725132" lon="105.6489901"><ele>722.02</ele><time>2026-04-14T21:16:42.000Z</time></trkpt>
        <trkpt lat="28.6724744" lon="105.6488847"><ele>721.84</ele><time>2026-04-14T21:16:52.000Z</time></trkpt>
        <trkpt lat="28.6724516" lon="105.6487582"><ele>720.79</ele><time>2026-04-14T21:17:02.000Z</time></trkpt>
        <trkpt lat="28.6724395" lon="105.6486242"><ele>718.56</ele><time>2026-04-14T21:17:12.000Z</time></trkpt>
        <trkpt lat="28.6724246" lon="105.6484977"><ele>716.6</ele><time>2026-04-14T21:17:22.000Z</time></trkpt>
        <trkpt lat="28.6724134" lon="105.6483847"><ele>715.44</ele><time>2026-04-14T21:17:32.000Z</time></trkpt>
        <trkpt lat="28.672403" lon="105.6482715"><ele>714.82</ele><time>2026-04-14T21:17:42.000Z</time></trkpt>
        <trkpt lat="28.6723448" lon="105.6481958"><ele>714.77</ele><time>2026-04-14T21:17:52.000Z</time></trkpt>
        <trkpt lat="28.6722512" lon="105.6481789"><ele>713.49</ele><time>2026-04-14T21:18:02.000Z</time></trkpt>
        <trkpt lat="28.6721409" lon="105.6481964"><ele>712.33</ele><time>2026-04-14T21:18:12.000Z</time></trkpt>
        <trkpt lat="28.6720365" lon="105.6482109"><ele>711.54</ele><time>2026-04-14T21:18:26.000Z</time></trkpt>
        <trkpt lat="28.6719369" lon="105.6482127"><ele>711.57</ele><time>2026-04-14T21:18:36.000Z</time></trkpt>
        <trkpt lat="28.6718288" lon="105.6482452"><ele>711.15</ele><time>2026-04-14T21:18:46.000Z</time></trkpt>
        <trkpt lat="28.671763" lon="105.6483375"><ele>710.96</ele><time>2026-04-14T21:18:56.000Z</time></trkpt>
        <trkpt lat="28.6717897" lon="105.6484221"><ele>711.92</ele><time>2026-04-14T21:19:10.000Z</time></trkpt>
        <trkpt lat="28.6718069" lon="105.6485335"><ele>713.2</ele><time>2026-04-14T21:19:38.000Z</time></trkpt>
        <trkpt lat="28.6718044" lon="105.6486554"><ele>713.24</ele><time>2026-04-14T21:19:46.000Z</time></trkpt>
        <trkpt lat="28.6717645" lon="105.648771"><ele>713.78</ele><time>2026-04-14T21:19:54.000Z</time></trkpt>
        <trkpt lat="28.6717043" lon="105.6488738"><ele>714.05</ele><time>2026-04-14T21:20:02.000Z</time></trkpt>
        <trkpt lat="28.6716461" lon="105.648975"><ele>713.38</ele><time>2026-04-14T21:20:12.000Z</time></trkpt>
        <trkpt lat="28.6715744" lon="105.6490672"><ele>712.44</ele><time>2026-04-14T21:20:24.000Z</time></trkpt>
        <trkpt lat="28.6714837" lon="105.6491363"><ele>712.08</ele><time>2026-04-14T21:20:30.000Z</time></trkpt>
        <trkpt lat="28.6713936" lon="105.6492027"><ele>711.66</ele><time>2026-04-14T21:20:38.000Z</time></trkpt>
        <trkpt lat="28.671313" lon="105.6492672"><ele>711.5</ele><time>2026-04-14T21:20:52.000Z</time></trkpt>
        <trkpt lat="28.6713133" lon="105.64914"><ele>711.42</ele><time>2026-04-14T21:22:38.000Z</time></trkpt>
        <trkpt lat="28.6712633" lon="105.6490417"><ele>711.88</ele><time>2026-04-14T21:22:46.000Z</time></trkpt>
        <trkpt lat="28.6711851" lon="105.6489856"><ele>711.63</ele><time>2026-04-14T21:23:00.000Z</time></trkpt>
        <trkpt lat="28.6710891" lon="105.6489487"><ele>711.58</ele><time>2026-04-14T21:23:24.000Z</time></trkpt>
        <trkpt lat="28.6709998" lon="105.6489718"><ele>711.54</ele><time>2026-04-14T21:23:40.000Z</time></trkpt>
        <trkpt lat="28.6709427" lon="105.6489142"><ele>711.35</ele><time>2026-04-14T21:24:04.000Z</time></trkpt>
        <trkpt lat="28.6709066" lon="105.6488153"><ele>710.3</ele><time>2026-04-14T21:24:16.000Z</time></trkpt>
        <trkpt lat="28.6709168" lon="105.6487047"><ele>709.35</ele><time>2026-04-14T21:24:26.000Z</time></trkpt>
        <trkpt lat="28.6708631" lon="105.6487183"><ele>708.3</ele><time>2026-04-14T21:24:40.000Z</time></trkpt>
        <trkpt lat="28.6708137" lon="105.6488086"><ele>704.99</ele><time>2026-04-14T21:24:50.000Z</time></trkpt>
        <trkpt lat="28.6707375" lon="105.6489038"><ele>701.55</ele><time>2026-04-14T21:25:32.000Z</time></trkpt>
        <trkpt lat="28.6706647" lon="105.6488735"><ele>698.22</ele><time>2026-04-14T21:26:12.000Z</time></trkpt>
        <trkpt lat="28.6706512" lon="105.6487708"><ele>693.95</ele><time>2026-04-14T21:26:22.000Z</time></trkpt>
        <trkpt lat="28.6706927" lon="105.6486638"><ele>690.27</ele><time>2026-04-14T21:26:32.000Z</time></trkpt>
        <trkpt lat="28.6707652" lon="105.6485718"><ele>687.02</ele><time>2026-04-14T21:26:46.000Z</time></trkpt>
        <trkpt lat="28.6708496" lon="105.6485052"><ele>683.31</ele><time>2026-04-14T21:26:58.000Z</time></trkpt>
        <trkpt lat="28.6709567" lon="105.6484653"><ele>679.22</ele><time>2026-04-14T21:27:10.000Z</time></trkpt>
        <trkpt lat="28.6710694" lon="105.6484744"><ele>676.07</ele><time>2026-04-14T21:27:20.000Z</time></trkpt>
        <trkpt lat="28.6711262" lon="105.6484119"><ele>673.46</ele><time>2026-04-14T21:27:36.000Z</time></trkpt>
        <trkpt lat="28.6711358" lon="105.6483007"><ele>671.67</ele><time>2026-04-14T21:27:46.000Z</time></trkpt>
        <trkpt lat="28.671134" lon="105.6481851"><ele>669.27</ele><time>2026-04-14T21:27:56.000Z</time></trkpt>
        <trkpt lat="28.6711631" lon="105.6480689"><ele>667.01</ele><time>2026-04-14T21:28:06.000Z</time></trkpt>
        <trkpt lat="28.6711848" lon="105.6479561"><ele>665.37</ele><time>2026-04-14T21:28:20.000Z</time></trkpt>
        <trkpt lat="28.6712034" lon="105.6478469"><ele>665.04</ele><time>2026-04-14T21:28:38.000Z</time></trkpt>
        <trkpt lat="28.6711323" lon="105.6478247"><ele>664.55</ele><time>2026-04-14T21:28:56.000Z</time></trkpt>
        <trkpt lat="28.6710475" lon="105.6478794"><ele>664.05</ele><time>2026-04-14T21:29:06.000Z</time></trkpt>
        <trkpt lat="28.6709677" lon="105.6478547"><ele>663.17</ele><time>2026-04-14T21:29:48.000Z</time></trkpt>
        <trkpt lat="28.6709233" lon="105.6477655"><ele>661.03</ele><time>2026-04-14T21:30:06.000Z</time></trkpt>
        <trkpt lat="28.6709259" lon="105.6476585"><ele>657.92</ele><time>2026-04-14T21:30:16.000Z</time></trkpt>
        <trkpt lat="28.670937" lon="105.6475941"><ele>655.07</ele><time>2026-04-14T21:30:26.000Z</time></trkpt>
        <trkpt lat="28.6708843" lon="105.647532"><ele>652.29</ele><time>2026-04-14T21:30:46.000Z</time></trkpt>
        <trkpt lat="28.6708035" lon="105.6474725"><ele>649.45</ele><time>2026-04-14T21:31:04.000Z</time></trkpt>
        <trkpt lat="28.6707061" lon="105.6474599"><ele>646.46</ele><time>2026-04-14T21:31:20.000Z</time></trkpt>
        <trkpt lat="28.6706217" lon="105.6475127"><ele>643.04</ele><time>2026-04-14T21:31:30.000Z</time></trkpt>
        <trkpt lat="28.6705332" lon="105.6475755"><ele>640.66</ele><time>2026-04-14T21:31:44.000Z</time></trkpt>
        <trkpt lat="28.6704361" lon="105.6476355"><ele>638.05</ele><time>2026-04-14T21:31:56.000Z</time></trkpt>
        <trkpt lat="28.670329" lon="105.6476388"><ele>636.05</ele><time>2026-04-14T21:32:10.000Z</time></trkpt>
        <trkpt lat="28.6702303" lon="105.647636"><ele>634.65</ele><time>2026-04-14T21:32:20.000Z</time></trkpt>
        <trkpt lat="28.6701317" lon="105.6476195"><ele>632.48</ele><time>2026-04-14T21:32:34.000Z</time></trkpt>
        <trkpt lat="28.6700396" lon="105.6476045"><ele>630.29</ele><time>2026-04-14T21:32:56.000Z</time></trkpt>
        <trkpt lat="28.6699573" lon="105.6476368"><ele>627.89</ele><time>2026-04-14T21:33:16.000Z</time></trkpt>
        <trkpt lat="28.669867" lon="105.6476532"><ele>626.04</ele><time>2026-04-14T21:33:28.000Z</time></trkpt>
        <trkpt lat="28.6697743" lon="105.6476742"><ele>624.48</ele><time>2026-04-14T21:33:38.000Z</time></trkpt>
        <trkpt lat="28.6696946" lon="105.6477316"><ele>623.28</ele><time>2026-04-14T21:33:50.000Z</time></trkpt>
        <trkpt lat="28.6696222" lon="105.647807"><ele>621.83</ele><time>2026-04-14T21:34:12.000Z</time></trkpt>
        <trkpt lat="28.6696096" lon="105.6477451"><ele>620.05</ele><time>2026-04-14T21:34:52.000Z</time></trkpt>
        <trkpt lat="28.6695516" lon="105.6476849"><ele>617.66</ele><time>2026-04-14T21:35:22.000Z</time></trkpt>
        <trkpt lat="28.6695473" lon="105.6475828"><ele>616.3</ele><time>2026-04-14T21:35:56.000Z</time></trkpt>
        <trkpt lat="28.6694767" lon="105.6475174"><ele>614.93</ele><time>2026-04-14T21:36:52.000Z</time></trkpt>
        <trkpt lat="28.6693831" lon="105.6475047"><ele>612.72</ele><time>2026-04-14T21:37:06.000Z</time></trkpt>
        <trkpt lat="28.669297" lon="105.6475563"><ele>609.49</ele><time>2026-04-14T21:37:22.000Z</time></trkpt>
        <trkpt lat="28.6692349" lon="105.6476475"><ele>605.79</ele><time>2026-04-14T21:37:44.000Z</time></trkpt>
        <trkpt lat="28.6692313" lon="105.6477656"><ele>601.71</ele><time>2026-04-14T21:38:00.000Z</time></trkpt>
        <trkpt lat="28.6691956" lon="105.6478737"><ele>599.12</ele><time>2026-04-14T21:38:12.000Z</time></trkpt>
        <trkpt lat="28.6691495" lon="105.6479866"><ele>596.66</ele><time>2026-04-14T21:38:22.000Z</time></trkpt>
        <trkpt lat="28.6691471" lon="105.6480972"><ele>593.97</ele><time>2026-04-14T21:38:32.000Z</time></trkpt>
        <trkpt lat="28.6691247" lon="105.6482008"><ele>590.15</ele><time>2026-04-14T21:38:46.000Z</time></trkpt>
        <trkpt lat="28.6690729" lon="105.6482964"><ele>586.3</ele><time>2026-04-14T21:38:58.000Z</time></trkpt>
        <trkpt lat="28.6690341" lon="105.648398"><ele>583.2</ele><time>2026-04-14T21:39:32.000Z</time></trkpt>
        <trkpt lat="28.6689866" lon="105.6484922"><ele>579.76</ele><time>2026-04-14T21:39:48.000Z</time></trkpt>
        <trkpt lat="28.6689511" lon="105.64859"><ele>577.41</ele><time>2026-04-14T21:40:08.000Z</time></trkpt>
        <trkpt lat="28.6689255" lon="105.6486895"><ele>575.13</ele><time>2026-04-14T21:40:24.000Z</time></trkpt>
        <trkpt lat="28.6689182" lon="105.6488095"><ele>573.01</ele><time>2026-04-14T21:40:38.000Z</time></trkpt>
        <trkpt lat="28.6688994" lon="105.6489258"><ele>570.81</ele><time>2026-04-14T21:40:50.000Z</time></trkpt>
        <trkpt lat="28.6688598" lon="105.6490383"><ele>568.7</ele><time>2026-04-14T21:41:00.000Z</time></trkpt>
        <trkpt lat="28.6688239" lon="105.6491552"><ele>566.42</ele><time>2026-04-14T21:41:10.000Z</time></trkpt>
        <trkpt lat="28.6687804" lon="105.6492574"><ele>563.4</ele><time>2026-04-14T21:41:20.000Z</time></trkpt>
        <trkpt lat="28.6686981" lon="105.6493002"><ele>559.79</ele><time>2026-04-14T21:41:52.000Z</time></trkpt>
        <trkpt lat="28.6686161" lon="105.6493595"><ele>555.75</ele><time>2026-04-14T21:42:12.000Z</time></trkpt>
        <trkpt lat="28.6685203" lon="105.6493745"><ele>554.7</ele><time>2026-04-14T21:42:30.000Z</time></trkpt>
        <trkpt lat="28.6684346" lon="105.6493332"><ele>554.7</ele><time>2026-04-14T21:42:54.000Z</time></trkpt>
        <trkpt lat="28.6683477" lon="105.6492779"><ele>554.87</ele><time>2026-04-14T21:43:20.000Z</time></trkpt>
        <trkpt lat="28.6682683" lon="105.6491983"><ele>555.57</ele><time>2026-04-14T21:44:42.000Z</time></trkpt>
        <trkpt lat="28.66817" lon="105.649165"><ele>558.47</ele><time>2026-04-14T21:45:20.000Z</time></trkpt>
        <trkpt lat="28.66806" lon="105.6490583"><ele>561.1</ele><time>2026-04-14T21:46:34.000Z</time></trkpt>
        <trkpt lat="28.66797" lon="105.64904"><ele>569.92</ele><time>2026-04-14T21:47:06.000Z</time></trkpt>
        <trkpt lat="28.66788" lon="105.6490471"><ele>579.72</ele><time>2026-04-14T21:47:40.000Z</time></trkpt>
        <trkpt lat="28.667799" lon="105.6490058"><ele>589.3</ele><time>2026-04-14T21:47:52.000Z</time></trkpt>
        <trkpt lat="28.6677108" lon="105.6489648"><ele>595.15</ele><time>2026-04-14T21:48:04.000Z</time></trkpt>
        <trkpt lat="28.667616" lon="105.6489748"><ele>599.35</ele><time>2026-04-14T21:48:26.000Z</time></trkpt>
        <trkpt lat="28.6675076" lon="105.6489646"><ele>603.5</ele><time>2026-04-14T21:49:10.000Z</time></trkpt>
        <trkpt lat="28.6674059" lon="105.6489471"><ele>609.56</ele><time>2026-04-14T21:49:26.000Z</time></trkpt>
        <trkpt lat="28.6673077" lon="105.6489132"><ele>614.66</ele><time>2026-04-14T21:49:44.000Z</time></trkpt>
        <trkpt lat="28.6672296" lon="105.6488361"><ele>619.49</ele><time>2026-04-14T21:50:06.000Z</time></trkpt>
        <trkpt lat="28.6671526" lon="105.6488608"><ele>624.74</ele><time>2026-04-14T21:50:34.000Z</time></trkpt>
        <trkpt lat="28.6672013" lon="105.6488153"><ele>630.79</ele><time>2026-04-14T21:51:04.000Z</time></trkpt>
        <trkpt lat="28.6671536" lon="105.6487829"><ele>635.66</ele><time>2026-04-14T21:51:26.000Z</time></trkpt>
        <trkpt lat="28.6670611" lon="105.6487556"><ele>640.71</ele><time>2026-04-14T21:51:38.000Z</time></trkpt>
        <trkpt lat="28.6669649" lon="105.6487116"><ele>643.67</ele><time>2026-04-14T21:51:52.000Z</time></trkpt>
        <trkpt lat="28.6668655" lon="105.6486814"><ele>645.06</ele><time>2026-04-14T21:52:08.000Z</time></trkpt>
        <trkpt lat="28.6667731" lon="105.6486483"><ele>647.1</ele><time>2026-04-14T21:52:20.000Z</time></trkpt>
        <trkpt lat="28.6666758" lon="105.6486025"><ele>649.77</ele><time>2026-04-14T21:52:48.000Z</time></trkpt>
        <trkpt lat="28.6665831" lon="105.6485583"><ele>650.34</ele><time>2026-04-14T21:53:06.000Z</time></trkpt>
        <trkpt lat="28.666505" lon="105.6484766"><ele>651.36</ele><time>2026-04-14T21:53:18.000Z</time></trkpt>
        <trkpt lat="28.6664398" lon="105.6483815"><ele>652.45</ele><time>2026-04-14T21:53:30.000Z</time></trkpt>
        <trkpt lat="28.6663709" lon="105.6482912"><ele>653.98</ele><time>2026-04-14T21:53:40.000Z</time></trkpt>
        <trkpt lat="28.6662857" lon="105.6482358"><ele>654.72</ele><time>2026-04-14T21:53:48.000Z</time></trkpt>
        <trkpt lat="28.6662156" lon="105.6481677"><ele>655.27</ele><time>2026-04-14T21:53:58.000Z</time></trkpt>
        <trkpt lat="28.6661239" lon="105.6481046"><ele>656.32</ele><time>2026-04-14T21:54:10.000Z</time></trkpt>
        <trkpt lat="28.6660266" lon="105.6480671"><ele>657.56</ele><time>2026-04-14T21:54:22.000Z</time></trkpt>
        <trkpt lat="28.6659455" lon="105.6480161"><ele>659.64</ele><time>2026-04-14T21:54:32.000Z</time></trkpt>
        <trkpt lat="28.6658587" lon="105.647971"><ele>661.77</ele><time>2026-04-14T21:54:44.000Z</time></trkpt>
        <trkpt lat="28.6658533" lon="105.648037"><ele>663.89</ele><time>2026-04-14T21:55:22.000Z</time></trkpt>
        <trkpt lat="28.6658651" lon="105.6481445"><ele>665.06</ele><time>2026-04-14T21:55:38.000Z</time></trkpt>
        <trkpt lat="28.6658989" lon="105.6482645"><ele>665.63</ele><time>2026-04-14T21:55:50.000Z</time></trkpt>
        <trkpt lat="28.6659774" lon="105.648351"><ele>667</ele><time>2026-04-14T21:56:02.000Z</time></trkpt>
        <trkpt lat="28.6660606" lon="105.6484329"><ele>669.23</ele><time>2026-04-14T21:56:16.000Z</time></trkpt>
        <trkpt lat="28.6661289" lon="105.6485267"><ele>672.14</ele><time>2026-04-14T21:56:30.000Z</time></trkpt>
        <trkpt lat="28.6661845" lon="105.6486175"><ele>675.48</ele><time>2026-04-14T21:56:42.000Z</time></trkpt>
        <trkpt lat="28.6662323" lon="105.6487231"><ele>678.97</ele><time>2026-04-14T21:56:56.000Z</time></trkpt>
        <trkpt lat="28.6662716" lon="105.6488238"><ele>682.77</ele><time>2026-04-14T21:57:08.000Z</time></trkpt>
        <trkpt lat="28.6663323" lon="105.6489019"><ele>686.96</ele><time>2026-04-14T21:57:18.000Z</time></trkpt>
        <trkpt lat="28.6663789" lon="105.6489952"><ele>691.23</ele><time>2026-04-14T21:57:28.000Z</time></trkpt>
        <trkpt lat="28.6664423" lon="105.6490753"><ele>695.09</ele><time>2026-04-14T21:57:38.000Z</time></trkpt>
        <trkpt lat="28.6665097" lon="105.6491515"><ele>697.8</ele><time>2026-04-14T21:57:48.000Z</time></trkpt>
        <trkpt lat="28.6665465" lon="105.6492483"><ele>698.66</ele><time>2026-04-14T21:58:02.000Z</time></trkpt>
        <trkpt lat="28.6665565" lon="105.6493655"><ele>698.03</ele><time>2026-04-14T21:58:14.000Z</time></trkpt>
        <trkpt lat="28.6665744" lon="105.6494719"><ele>697.2</ele><time>2026-04-14T21:58:24.000Z</time></trkpt>
        <trkpt lat="28.6665973" lon="105.6495752"><ele>696.51</ele><time>2026-04-14T21:58:34.000Z</time></trkpt>
        <trkpt lat="28.6666216" lon="105.6496835"><ele>695.35</ele><time>2026-04-14T21:58:46.000Z</time></trkpt>
        <trkpt lat="28.6666064" lon="105.6497898"><ele>693.95</ele><time>2026-04-14T21:59:12.000Z</time></trkpt>
        <trkpt lat="28.6665479" lon="105.6498739"><ele>692.12</ele><time>2026-04-14T21:59:24.000Z</time></trkpt>
        <trkpt lat="28.6664557" lon="105.6499123"><ele>691.17</ele><time>2026-04-14T21:59:36.000Z</time></trkpt>
        <trkpt lat="28.6663661" lon="105.649954"><ele>691.05</ele><time>2026-04-14T21:59:48.000Z</time></trkpt>
        <trkpt lat="28.6662835" lon="105.650015"><ele>691.37</ele><time>2026-04-14T22:00:04.000Z</time></trkpt>
        <trkpt lat="28.666258" lon="105.6501122"><ele>692.63</ele><time>2026-04-14T22:00:20.000Z</time></trkpt>
        <trkpt lat="28.6662489" lon="105.6502172"><ele>695.37</ele><time>2026-04-14T22:00:38.000Z</time></trkpt>
        <trkpt lat="28.6662392" lon="105.6503256"><ele>698.83</ele><time>2026-04-14T22:00:58.000Z</time></trkpt>
        <trkpt lat="28.6662194" lon="105.6502632"><ele>702.69</ele><time>2026-04-14T22:01:14.000Z</time></trkpt>
        <trkpt lat="28.6662084" lon="105.6501476"><ele>705.7</ele><time>2026-04-14T22:01:28.000Z</time></trkpt>
        <trkpt lat="28.6661818" lon="105.65003"><ele>707.72</ele><time>2026-04-14T22:01:40.000Z</time></trkpt>
        <trkpt lat="28.6661351" lon="105.6499168"><ele>708.79</ele><time>2026-04-14T22:01:52.000Z</time></trkpt>
        <trkpt lat="28.6660679" lon="105.6498294"><ele>709.44</ele><time>2026-04-14T22:02:02.000Z</time></trkpt>
        <trkpt lat="28.6659821" lon="105.6497809"><ele>710.15</ele><time>2026-04-14T22:02:12.000Z</time></trkpt>
        <trkpt lat="28.6658789" lon="105.6497901"><ele>711.46</ele><time>2026-04-14T22:02:22.000Z</time></trkpt>
        <trkpt lat="28.6657813" lon="105.6498306"><ele>712.73</ele><time>2026-04-14T22:02:32.000Z</time></trkpt>
        <trkpt lat="28.665694" lon="105.6499006"><ele>714.39</ele><time>2026-04-14T22:02:42.000Z</time></trkpt>
        <trkpt lat="28.6656238" lon="105.6499924"><ele>716.29</ele><time>2026-04-14T22:02:54.000Z</time></trkpt>
        <trkpt lat="28.6655722" lon="105.6500896"><ele>717.71</ele><time>2026-04-14T22:03:02.000Z</time></trkpt>
        <trkpt lat="28.6655239" lon="105.6501957"><ele>717.92</ele><time>2026-04-14T22:03:16.000Z</time></trkpt>
        <trkpt lat="28.6654514" lon="105.6502855"><ele>718.08</ele><time>2026-04-14T22:03:28.000Z</time></trkpt>
        <trkpt lat="28.6654117" lon="105.650394"><ele>717.62</ele><time>2026-04-14T22:03:50.000Z</time></trkpt>
        <trkpt lat="28.6653609" lon="105.6504995"><ele>717.27</ele><time>2026-04-14T22:04:02.000Z</time></trkpt>
        <trkpt lat="28.6653185" lon="105.6506129"><ele>717.58</ele><time>2026-04-14T22:04:12.000Z</time></trkpt>
        <trkpt lat="28.665284" lon="105.6507126"><ele>718.15</ele><time>2026-04-14T22:04:32.000Z</time></trkpt>
        <trkpt lat="28.6653633" lon="105.6507917"><ele>719.2</ele><time>2026-04-14T22:05:48.000Z</time></trkpt>
        <trkpt lat="28.665445" lon="105.6508617"><ele>718.51</ele><time>2026-04-14T22:05:58.000Z</time></trkpt>
        <trkpt lat="28.6655126" lon="105.6509571"><ele>718.38</ele><time>2026-04-14T22:06:10.000Z</time></trkpt>
        <trkpt lat="28.6655661" lon="105.6510556"><ele>718.65</ele><time>2026-04-14T22:06:24.000Z</time></trkpt>
        <trkpt lat="28.6655988" lon="105.6511667"><ele>719.4</ele><time>2026-04-14T22:06:38.000Z</time></trkpt>
        <trkpt lat="28.6656084" lon="105.6512817"><ele>720.48</ele><time>2026-04-14T22:06:50.000Z</time></trkpt>
        <trkpt lat="28.6656473" lon="105.6513884"><ele>721.3</ele><time>2026-04-14T22:07:02.000Z</time></trkpt>
        <trkpt lat="28.6657031" lon="105.6514813"><ele>721.65</ele><time>2026-04-14T22:07:14.000Z</time></trkpt>
        <trkpt lat="28.6657694" lon="105.6515691"><ele>721.84</ele><time>2026-04-14T22:07:24.000Z</time></trkpt>
        <trkpt lat="28.665806" lon="105.6516797"><ele>721.74</ele><time>2026-04-14T22:07:58.000Z</time></trkpt>
        <trkpt lat="28.6658205" lon="105.6517867"><ele>720.6</ele><time>2026-04-14T22:08:08.000Z</time></trkpt>
        <trkpt lat="28.6658079" lon="105.6518928"><ele>719.66</ele><time>2026-04-14T22:08:20.000Z</time></trkpt>
        <trkpt lat="28.6657696" lon="105.6520095"><ele>719.5</ele><time>2026-04-14T22:08:36.000Z</time></trkpt>
        <trkpt lat="28.6657255" lon="105.6521175"><ele>721.91</ele><time>2026-04-14T22:08:46.000Z</time></trkpt>
        <trkpt lat="28.6656457" lon="105.6521791"><ele>724.06</ele><time>2026-04-14T22:08:56.000Z</time></trkpt>
        <trkpt lat="28.6655509" lon="105.6522139"><ele>725.71</ele><time>2026-04-14T22:09:06.000Z</time></trkpt>
        <trkpt lat="28.6654634" lon="105.6522754"><ele>726.91</ele><time>2026-04-14T22:09:16.000Z</time></trkpt>
        <trkpt lat="28.6654011" lon="105.6523594"><ele>727.46</ele><time>2026-04-14T22:09:24.000Z</time></trkpt>
        <trkpt lat="28.66535" lon="105.652453"><ele>727.57</ele><time>2026-04-14T22:09:33.000Z</time></trkpt>
        <trkpt lat="28.665292" lon="105.6525438"><ele>726.94</ele><time>2026-04-14T22:09:41.000Z</time></trkpt>
        <trkpt lat="28.6652293" lon="105.65263"><ele>726.45</ele><time>2026-04-14T22:09:49.000Z</time></trkpt>
        <trkpt lat="28.6651732" lon="105.6527153"><ele>726.81</ele><time>2026-04-14T22:09:59.000Z</time></trkpt>
        <trkpt lat="28.6651136" lon="105.6527978"><ele>727.07</ele><time>2026-04-14T22:10:07.000Z</time></trkpt>
        <trkpt lat="28.6650549" lon="105.6528805"><ele>727.25</ele><time>2026-04-14T22:10:15.000Z</time></trkpt>
        <trkpt lat="28.664989" lon="105.6529572"><ele>727.66</ele><time>2026-04-14T22:10:27.000Z</time></trkpt>
        <trkpt lat="28.6649642" lon="105.6530569"><ele>727.81</ele><time>2026-04-14T22:10:49.000Z</time></trkpt>
        <trkpt lat="28.6649537" lon="105.6531616"><ele>728.15</ele><time>2026-04-14T22:10:57.000Z</time></trkpt>
        <trkpt lat="28.6650252" lon="105.6532445"><ele>728.34</ele><time>2026-04-14T22:11:07.000Z</time></trkpt>
        <trkpt lat="28.665126" lon="105.6532999"><ele>728.28</ele><time>2026-04-14T22:11:17.000Z</time></trkpt>
        <trkpt lat="28.6652221" lon="105.6533471"><ele>728.68</ele><time>2026-04-14T22:11:31.000Z</time></trkpt>
        <trkpt lat="28.6653031" lon="105.6534159"><ele>729.37</ele><time>2026-04-14T22:11:43.000Z</time></trkpt>
        <trkpt lat="28.665354" lon="105.6535177"><ele>729.56</ele><time>2026-04-14T22:12:05.000Z</time></trkpt>
        <trkpt lat="28.6653835" lon="105.6536263"><ele>730.14</ele><time>2026-04-14T22:12:15.000Z</time></trkpt>
        <trkpt lat="28.6654055" lon="105.6537327"><ele>731.02</ele><time>2026-04-14T22:12:25.000Z</time></trkpt>
        <trkpt lat="28.6654329" lon="105.653847"><ele>731.44</ele><time>2026-04-14T22:12:35.000Z</time></trkpt>
        <trkpt lat="28.6654424" lon="105.6539547"><ele>731.47</ele><time>2026-04-14T22:12:43.000Z</time></trkpt>
        <trkpt lat="28.6654246" lon="105.6540642"><ele>730.97</ele><time>2026-04-14T22:12:53.000Z</time></trkpt>
        <trkpt lat="28.6653718" lon="105.6541531"><ele>730.85</ele><time>2026-04-14T22:13:01.000Z</time></trkpt>
        <trkpt lat="28.6653108" lon="105.6541967"><ele>730.79</ele><time>2026-04-14T22:13:15.000Z</time></trkpt>
        <trkpt lat="28.6652324" lon="105.6542687"><ele>730.75</ele><time>2026-04-14T22:13:25.000Z</time></trkpt>
        <trkpt lat="28.6651384" lon="105.6543203"><ele>730.9</ele><time>2026-04-14T22:13:35.000Z</time></trkpt>
        <trkpt lat="28.665047" lon="105.6543044"><ele>730.47</ele><time>2026-04-14T22:13:43.000Z</time></trkpt>
        <trkpt lat="28.6649498" lon="105.6543025"><ele>730.14</ele><time>2026-04-14T22:13:53.000Z</time></trkpt>
        <trkpt lat="28.6648701" lon="105.6543577"><ele>730.08</ele><time>2026-04-14T22:14:05.000Z</time></trkpt>
        <trkpt lat="28.6647951" lon="105.6544201"><ele>730</ele><time>2026-04-14T22:14:27.000Z</time></trkpt>
        <trkpt lat="28.6647112" lon="105.6544905"><ele>729.7</ele><time>2026-04-14T22:14:39.000Z</time></trkpt>
        <trkpt lat="28.6646223" lon="105.6545007"><ele>729.14</ele><time>2026-04-14T22:14:51.000Z</time></trkpt>
        <trkpt lat="28.6645293" lon="105.6545315"><ele>728.95</ele><time>2026-04-14T22:15:01.000Z</time></trkpt>
        <trkpt lat="28.6644451" lon="105.654595"><ele>728.84</ele><time>2026-04-14T22:15:15.000Z</time></trkpt>
        <trkpt lat="28.6643709" lon="105.6546732"><ele>730.07</ele><time>2026-04-14T22:15:27.000Z</time></trkpt>
        <trkpt lat="28.6643213" lon="105.6547663"><ele>731.68</ele><time>2026-04-14T22:15:37.000Z</time></trkpt>
        <trkpt lat="28.6642751" lon="105.654862"><ele>733.49</ele><time>2026-04-14T22:15:49.000Z</time></trkpt>
        <trkpt lat="28.6642985" lon="105.6549719"><ele>735.99</ele><time>2026-04-14T22:16:07.000Z</time></trkpt>
        <trkpt lat="28.6643061" lon="105.6550923"><ele>737.76</ele><time>2026-04-14T22:16:17.000Z</time></trkpt>
        <trkpt lat="28.6642974" lon="105.6552051"><ele>738.46</ele><time>2026-04-14T22:16:27.000Z</time></trkpt>
        <trkpt lat="28.6642925" lon="105.6553138"><ele>738.91</ele><time>2026-04-14T22:16:37.000Z</time></trkpt>
        <trkpt lat="28.6642865" lon="105.6554196"><ele>738.82</ele><time>2026-04-14T22:16:47.000Z</time></trkpt>
        <trkpt lat="28.6642889" lon="105.6555306"><ele>738.85</ele><time>2026-04-14T22:16:57.000Z</time></trkpt>
        <trkpt lat="28.6642904" lon="105.6555573"><ele>739.05</ele><time>2026-04-14T22:17:05.000Z</time></trkpt>
        <trkpt lat="28.6643251" lon="105.655632"><ele>739.03</ele><time>2026-04-14T22:17:47.000Z</time></trkpt>
        <trkpt lat="28.6643791" lon="105.6557186"><ele>740.35</ele><time>2026-04-14T22:17:55.000Z</time></trkpt>
        <trkpt lat="28.6644383" lon="105.6558045"><ele>741.4</ele><time>2026-04-14T22:18:03.000Z</time></trkpt>
        <trkpt lat="28.664506" lon="105.6558917"><ele>741.4</ele><time>2026-04-14T22:18:13.000Z</time></trkpt>
        <trkpt lat="28.6645868" lon="105.6559766"><ele>740.8</ele><time>2026-04-14T22:18:23.000Z</time></trkpt>
        <trkpt lat="28.6646361" lon="105.6560741"><ele>740.11</ele><time>2026-04-14T22:18:33.000Z</time></trkpt>
        <trkpt lat="28.6646587" lon="105.6561787"><ele>740.24</ele><time>2026-04-14T22:18:41.000Z</time></trkpt>
        <trkpt lat="28.6646864" lon="105.656289"><ele>740.74</ele><time>2026-04-14T22:18:51.000Z</time></trkpt>
        <trkpt lat="28.6647655" lon="105.656343"><ele>741.8</ele><time>2026-04-14T22:19:03.000Z</time></trkpt>
        <trkpt lat="28.6648667" lon="105.6563707"><ele>742.06</ele><time>2026-04-14T22:19:11.000Z</time></trkpt>
        <trkpt lat="28.664966" lon="105.6564128"><ele>741.56</ele><time>2026-04-14T22:19:19.000Z</time></trkpt>
        <trkpt lat="28.6650521" lon="105.6564868"><ele>740.85</ele><time>2026-04-14T22:19:29.000Z</time></trkpt>
        <trkpt lat="28.665136" lon="105.6565432"><ele>739.62</ele><time>2026-04-14T22:19:43.000Z</time></trkpt>
        <trkpt lat="28.6651728" lon="105.656633"><ele>738.49</ele><time>2026-04-14T22:20:05.000Z</time></trkpt>
        <trkpt lat="28.6651975" lon="105.6567367"><ele>738.75</ele><time>2026-04-14T22:20:21.000Z</time></trkpt>
        <trkpt lat="28.6652243" lon="105.6568386"><ele>739.25</ele><time>2026-04-14T22:20:39.000Z</time></trkpt>
        <trkpt lat="28.6652539" lon="105.6569558"><ele>740.47</ele><time>2026-04-14T22:21:17.000Z</time></trkpt>
        <trkpt lat="28.6653118" lon="105.6570377"><ele>743.45</ele><time>2026-04-14T22:21:39.000Z</time></trkpt>
        <trkpt lat="28.6653917" lon="105.6571083"><ele>747.26</ele><time>2026-04-14T22:22:51.000Z</time></trkpt>
        <trkpt lat="28.6653983" lon="105.6572133"><ele>754.59</ele><time>2026-04-14T22:24:43.000Z</time></trkpt>
        <trkpt lat="28.6654467" lon="105.6573083"><ele>758.21</ele><time>2026-04-14T22:25:05.000Z</time></trkpt>
        <trkpt lat="28.6654978" lon="105.6574033"><ele>757.09</ele><time>2026-04-14T22:25:25.000Z</time></trkpt>
        <trkpt lat="28.6655546" lon="105.6574945"><ele>753.18</ele><time>2026-04-14T22:25:41.000Z</time></trkpt>
        <trkpt lat="28.6656145" lon="105.6575769"><ele>748.24</ele><time>2026-04-14T22:25:53.000Z</time></trkpt>
        <trkpt lat="28.6656777" lon="105.657665"><ele>743.79</ele><time>2026-04-14T22:26:07.000Z</time></trkpt>
        <trkpt lat="28.6657443" lon="105.6577458"><ele>741.99</ele><time>2026-04-14T22:26:23.000Z</time></trkpt>
        <trkpt lat="28.6657154" lon="105.6578364"><ele>741.82</ele><time>2026-04-14T22:26:43.000Z</time></trkpt>
        <trkpt lat="28.6656436" lon="105.6579172"><ele>743.49</ele><time>2026-04-14T22:26:53.000Z</time></trkpt>
        <trkpt lat="28.6655625" lon="105.6579979"><ele>745.26</ele><time>2026-04-14T22:27:03.000Z</time></trkpt>
        <trkpt lat="28.6654892" lon="105.6580789"><ele>746.95</ele><time>2026-04-14T22:27:13.000Z</time></trkpt>
        <trkpt lat="28.6654396" lon="105.6581689"><ele>748.69</ele><time>2026-04-14T22:27:21.000Z</time></trkpt>
        <trkpt lat="28.665401" lon="105.6582737"><ele>749.99</ele><time>2026-04-14T22:27:31.000Z</time></trkpt>
        <trkpt lat="28.6653684" lon="105.6583796"><ele>751.37</ele><time>2026-04-14T22:27:41.000Z</time></trkpt>
        <trkpt lat="28.6653194" lon="105.6584811"><ele>753.45</ele><time>2026-04-14T22:27:53.000Z</time></trkpt>
        <trkpt lat="28.6652612" lon="105.6585692"><ele>756.01</ele><time>2026-04-14T22:28:05.000Z</time></trkpt>
        <trkpt lat="28.6652" lon="105.6586535"><ele>757.55</ele><time>2026-04-14T22:28:15.000Z</time></trkpt>
        <trkpt lat="28.6651574" lon="105.6587471"><ele>758.39</ele><time>2026-04-14T22:28:27.000Z</time></trkpt>
        <trkpt lat="28.6651345" lon="105.6588622"><ele>758.91</ele><time>2026-04-14T22:28:47.000Z</time></trkpt>
        <trkpt lat="28.6651357" lon="105.6589737"><ele>758.22</ele><time>2026-04-14T22:29:01.000Z</time></trkpt>
        <trkpt lat="28.6651392" lon="105.6590826"><ele>756.45</ele><time>2026-04-14T22:29:11.000Z</time></trkpt>
        <trkpt lat="28.6651352" lon="105.6591976"><ele>753.93</ele><time>2026-04-14T22:29:23.000Z</time></trkpt>
        <trkpt lat="28.6651335" lon="105.6593135"><ele>750.73</ele><time>2026-04-14T22:29:33.000Z</time></trkpt>
        <trkpt lat="28.6651361" lon="105.6594204"><ele>747.97</ele><time>2026-04-14T22:29:43.000Z</time></trkpt>
        <trkpt lat="28.6651463" lon="105.6595239"><ele>746.05</ele><time>2026-04-14T22:29:55.000Z</time></trkpt>
        <trkpt lat="28.6651426" lon="105.6596265"><ele>744.82</ele><time>2026-04-14T22:30:09.000Z</time></trkpt>
        <trkpt lat="28.6651433" lon="105.6597304"><ele>742.96</ele><time>2026-04-14T22:30:23.000Z</time></trkpt>
        <trkpt lat="28.665146" lon="105.6598337"><ele>740.48</ele><time>2026-04-14T22:30:33.000Z</time></trkpt>
        <trkpt lat="28.6651419" lon="105.6599419"><ele>738.6</ele><time>2026-04-14T22:30:43.000Z</time></trkpt>
        <trkpt lat="28.6651076" lon="105.6600482"><ele>737.18</ele><time>2026-04-14T22:30:59.000Z</time></trkpt>
        <trkpt lat="28.6650489" lon="105.6601473"><ele>737.19</ele><time>2026-04-14T22:31:13.000Z</time></trkpt>
        <trkpt lat="28.6649893" lon="105.6602388"><ele>737.06</ele><time>2026-04-14T22:31:27.000Z</time></trkpt>
        <trkpt lat="28.6649305" lon="105.6603278"><ele>738.84</ele><time>2026-04-14T22:31:59.000Z</time></trkpt>
        <trkpt lat="28.6648719" lon="105.6604103"><ele>741.53</ele><time>2026-04-14T22:32:17.000Z</time></trkpt>
        <trkpt lat="28.6648291" lon="105.6605047"><ele>744.19</ele><time>2026-04-14T22:32:37.000Z</time></trkpt>
        <trkpt lat="28.66483" lon="105.660609"><ele>748.06</ele><time>2026-04-14T22:32:55.000Z</time></trkpt>
        <trkpt lat="28.6648398" lon="105.6607153"><ele>751.39</ele><time>2026-04-14T22:33:29.000Z</time></trkpt>
        <trkpt lat="28.6648402" lon="105.6608267"><ele>752</ele><time>2026-04-14T22:33:43.000Z</time></trkpt>
        <trkpt lat="28.6648326" lon="105.6609395"><ele>750.71</ele><time>2026-04-14T22:33:57.000Z</time></trkpt>
        <trkpt lat="28.6648079" lon="105.6610409"><ele>748.25</ele><time>2026-04-14T22:34:15.000Z</time></trkpt>
        <trkpt lat="28.6647945" lon="105.6611479"><ele>744.96</ele><time>2026-04-14T22:34:31.000Z</time></trkpt>
        <trkpt lat="28.6647889" lon="105.6612523"><ele>742.74</ele><time>2026-04-14T22:34:57.000Z</time></trkpt>
        <trkpt lat="28.6647884" lon="105.6613669"><ele>742.55</ele><time>2026-04-14T22:35:29.000Z</time></trkpt>
        <trkpt lat="28.6648095" lon="105.6614717"><ele>744.42</ele><time>2026-04-14T22:36:27.000Z</time></trkpt>
        <trkpt lat="28.6648066" lon="105.6615748"><ele>748.03</ele><time>2026-04-14T22:36:43.000Z</time></trkpt>
        <trkpt lat="28.6647446" lon="105.6616537"><ele>751.63</ele><time>2026-04-14T22:37:03.000Z</time></trkpt>
        <trkpt lat="28.6646691" lon="105.6617379"><ele>752.52</ele><time>2026-04-14T22:37:15.000Z</time></trkpt>
        <trkpt lat="28.6645834" lon="105.6618179"><ele>751.87</ele><time>2026-04-14T22:37:27.000Z</time></trkpt>
        <trkpt lat="28.6645029" lon="105.6618869"><ele>749.77</ele><time>2026-04-14T22:37:35.000Z</time></trkpt>
        <trkpt lat="28.6644236" lon="105.6619498"><ele>746.99</ele><time>2026-04-14T22:37:43.000Z</time></trkpt>
        <trkpt lat="28.6643356" lon="105.6620188"><ele>744.28</ele><time>2026-04-14T22:37:53.000Z</time></trkpt>
        <trkpt lat="28.6642435" lon="105.6620934"><ele>741.97</ele><time>2026-04-14T22:38:03.000Z</time></trkpt>
        <trkpt lat="28.6641517" lon="105.6621501"><ele>740.43</ele><time>2026-04-14T22:38:11.000Z</time></trkpt>
        <trkpt lat="28.6640795" lon="105.6622263"><ele>739.73</ele><time>2026-04-14T22:38:21.000Z</time></trkpt>
        <trkpt lat="28.6640108" lon="105.6622966"><ele>739.46</ele><time>2026-04-14T22:38:29.000Z</time></trkpt>
        <trkpt lat="28.6639289" lon="105.6623479"><ele>739.43</ele><time>2026-04-14T22:38:37.000Z</time></trkpt>
        <trkpt lat="28.6638464" lon="105.6623923"><ele>739.76</ele><time>2026-04-14T22:38:45.000Z</time></trkpt>
        <trkpt lat="28.6637627" lon="105.6624364"><ele>740.55</ele><time>2026-04-14T22:38:53.000Z</time></trkpt>
        <trkpt lat="28.6636727" lon="105.6624814"><ele>741.35</ele><time>2026-04-14T22:39:01.000Z</time></trkpt>
        <trkpt lat="28.6635792" lon="105.6625221"><ele>741.89</ele><time>2026-04-14T22:39:11.000Z</time></trkpt>
        <trkpt lat="28.6634912" lon="105.6625565"><ele>742.75</ele><time>2026-04-14T22:39:23.000Z</time></trkpt>
        <trkpt lat="28.6634019" lon="105.6625915"><ele>744.32</ele><time>2026-04-14T22:39:35.000Z</time></trkpt>
        <trkpt lat="28.663312" lon="105.662641"><ele>746.46</ele><time>2026-04-14T22:39:47.000Z</time></trkpt>
        <trkpt lat="28.6632244" lon="105.6626923"><ele>748.63</ele><time>2026-04-14T22:40:03.000Z</time></trkpt>
        <trkpt lat="28.6631377" lon="105.6627436"><ele>750.77</ele><time>2026-04-14T22:40:13.000Z</time></trkpt>
        <trkpt lat="28.6630663" lon="105.6628194"><ele>752.46</ele><time>2026-04-14T22:40:23.000Z</time></trkpt>
        <trkpt lat="28.6630166" lon="105.6629166"><ele>753.94</ele><time>2026-04-14T22:40:39.000Z</time></trkpt>
        <trkpt lat="28.6629878" lon="105.66302"><ele>754.22</ele><time>2026-04-14T22:40:53.000Z</time></trkpt>
        <trkpt lat="28.6629736" lon="105.6631338"><ele>752.88</ele><time>2026-04-14T22:41:13.000Z</time></trkpt>
        <trkpt lat="28.6629604" lon="105.663245"><ele>749.79</ele><time>2026-04-14T22:41:29.000Z</time></trkpt>
        <trkpt lat="28.6629455" lon="105.6633565"><ele>746.44</ele><time>2026-04-14T22:41:41.000Z</time></trkpt>
        <trkpt lat="28.6629165" lon="105.6634675"><ele>743.58</ele><time>2026-04-14T22:41:53.000Z</time></trkpt>
        <trkpt lat="28.6628518" lon="105.6635555"><ele>740.06</ele><time>2026-04-14T22:42:41.000Z</time></trkpt>
        <trkpt lat="28.6627684" lon="105.6636137"><ele>737.54</ele><time>2026-04-14T22:42:53.000Z</time></trkpt>
        <trkpt lat="28.6626765" lon="105.6636521"><ele>737.14</ele><time>2026-04-14T22:43:05.000Z</time></trkpt>
        <trkpt lat="28.6625726" lon="105.6636919"><ele>737.89</ele><time>2026-04-14T22:43:15.000Z</time></trkpt>
        <trkpt lat="28.6624696" lon="105.6637231"><ele>738.46</ele><time>2026-04-14T22:43:27.000Z</time></trkpt>
        <trkpt lat="28.662371" lon="105.6637512"><ele>739.03</ele><time>2026-04-14T22:43:41.000Z</time></trkpt>
        <trkpt lat="28.6622835" lon="105.6638041"><ele>739.84</ele><time>2026-04-14T22:44:05.000Z</time></trkpt>
        <trkpt lat="28.6621965" lon="105.6638594"><ele>740.21</ele><time>2026-04-14T22:44:21.000Z</time></trkpt>
        <trkpt lat="28.6621379" lon="105.6639485"><ele>739.3</ele><time>2026-04-14T22:44:31.000Z</time></trkpt>
        <trkpt lat="28.6621045" lon="105.6640629"><ele>738.44</ele><time>2026-04-14T22:44:43.000Z</time></trkpt>
        <trkpt lat="28.6621073" lon="105.664187"><ele>736.83</ele><time>2026-04-14T22:44:53.000Z</time></trkpt>
        <trkpt lat="28.6621111" lon="105.6643007"><ele>733.94</ele><time>2026-04-14T22:45:05.000Z</time></trkpt>
        <trkpt lat="28.6620719" lon="105.664395"><ele>729.92</ele><time>2026-04-14T22:45:15.000Z</time></trkpt>
        <trkpt lat="28.6619928" lon="105.6644593"><ele>726.94</ele><time>2026-04-14T22:45:25.000Z</time></trkpt>
        <trkpt lat="28.6619005" lon="105.6645121"><ele>725.46</ele><time>2026-04-14T22:45:35.000Z</time></trkpt>
        <trkpt lat="28.6618175" lon="105.6645704"><ele>725.52</ele><time>2026-04-14T22:45:53.000Z</time></trkpt>
        <trkpt lat="28.6617153" lon="105.6646049"><ele>726.29</ele><time>2026-04-14T22:46:11.000Z</time></trkpt>
        <trkpt lat="28.6616192" lon="105.6646375"><ele>727.02</ele><time>2026-04-14T22:46:25.000Z</time></trkpt>
        <trkpt lat="28.6615155" lon="105.6646624"><ele>727.92</ele><time>2026-04-14T22:46:35.000Z</time></trkpt>
        <trkpt lat="28.6614195" lon="105.664644"><ele>728.25</ele><time>2026-04-14T22:46:45.000Z</time></trkpt>
        <trkpt lat="28.6613219" lon="105.664612"><ele>728.62</ele><time>2026-04-14T22:46:55.000Z</time></trkpt>
        <trkpt lat="28.6612262" lon="105.664603"><ele>729.08</ele><time>2026-04-14T22:47:05.000Z</time></trkpt>
        <trkpt lat="28.6611349" lon="105.6646535"><ele>729.52</ele><time>2026-04-14T22:47:17.000Z</time></trkpt>
        <trkpt lat="28.6610603" lon="105.6647244"><ele>729.86</ele><time>2026-04-14T22:47:27.000Z</time></trkpt>
        <trkpt lat="28.6610026" lon="105.6648095"><ele>730.74</ele><time>2026-04-14T22:47:35.000Z</time></trkpt>
        <trkpt lat="28.6609514" lon="105.6649144"><ele>731.11</ele><time>2026-04-14T22:47:45.000Z</time></trkpt>
        <trkpt lat="28.6609211" lon="105.665008"><ele>730.24</ele><time>2026-04-14T22:47:55.000Z</time></trkpt>
        <trkpt lat="28.6609248" lon="105.6651152"><ele>728.98</ele><time>2026-04-14T22:48:07.000Z</time></trkpt>
        <trkpt lat="28.6608953" lon="105.665218"><ele>728.08</ele><time>2026-04-14T22:48:21.000Z</time></trkpt>
        <trkpt lat="28.660841" lon="105.6653057"><ele>727.14</ele><time>2026-04-14T22:48:31.000Z</time></trkpt>
        <trkpt lat="28.6607641" lon="105.6653674"><ele>726.44</ele><time>2026-04-14T22:48:39.000Z</time></trkpt>
        <trkpt lat="28.6606767" lon="105.665434"><ele>725.35</ele><time>2026-04-14T22:48:49.000Z</time></trkpt>
        <trkpt lat="28.6606001" lon="105.6655156"><ele>724.08</ele><time>2026-04-14T22:49:01.000Z</time></trkpt>
        <trkpt lat="28.6605266" lon="105.6656032"><ele>721.68</ele><time>2026-04-14T22:49:13.000Z</time></trkpt>
        <trkpt lat="28.660462" lon="105.6656913"><ele>719.28</ele><time>2026-04-14T22:49:25.000Z</time></trkpt>
        <trkpt lat="28.6604057" lon="105.6657841"><ele>717.01</ele><time>2026-04-14T22:49:43.000Z</time></trkpt>
        <trkpt lat="28.6603907" lon="105.6658945"><ele>715.41</ele><time>2026-04-14T22:50:09.000Z</time></trkpt>
        <trkpt lat="28.6603638" lon="105.6660046"><ele>714.46</ele><time>2026-04-14T22:50:23.000Z</time></trkpt>
        <trkpt lat="28.66047" lon="105.6660267"><ele>713.62</ele><time>2026-04-14T22:53:07.000Z</time></trkpt>
        <trkpt lat="28.6605567" lon="105.6659933"><ele>710.3</ele><time>2026-04-14T22:53:23.000Z</time></trkpt>
        <trkpt lat="28.6606306" lon="105.6659276"><ele>707.16</ele><time>2026-04-14T22:53:43.000Z</time></trkpt>
        <trkpt lat="28.6607139" lon="105.6658882"><ele>702.83</ele><time>2026-04-14T22:54:05.000Z</time></trkpt>
        <trkpt lat="28.6607976" lon="105.6658394"><ele>698.22</ele><time>2026-04-14T22:54:21.000Z</time></trkpt>
        <trkpt lat="28.6608788" lon="105.6658631"><ele>693.56</ele><time>2026-04-14T22:54:59.000Z</time></trkpt>
        <trkpt lat="28.6609151" lon="105.6659649"><ele>686.27</ele><time>2026-04-14T22:55:21.000Z</time></trkpt>
        <trkpt lat="28.6608975" lon="105.6660802"><ele>680.69</ele><time>2026-04-14T22:55:33.000Z</time></trkpt>
        <trkpt lat="28.660879" lon="105.6661953"><ele>676.39</ele><time>2026-04-14T22:55:47.000Z</time></trkpt>
        <trkpt lat="28.6609409" lon="105.6662009"><ele>672.48</ele><time>2026-04-14T22:56:07.000Z</time></trkpt>
        <trkpt lat="28.6610419" lon="105.6661419"><ele>668.62</ele><time>2026-04-14T22:57:05.000Z</time></trkpt>
        <trkpt lat="28.661144" lon="105.666103"><ele>665.08</ele><time>2026-04-14T22:57:25.000Z</time></trkpt>
        <trkpt lat="28.6612377" lon="105.6660587"><ele>661.95</ele><time>2026-04-14T22:57:41.000Z</time></trkpt>
        <trkpt lat="28.6613175" lon="105.6659857"><ele>659.22</ele><time>2026-04-14T22:57:51.000Z</time></trkpt>
        <trkpt lat="28.6613778" lon="105.6659138"><ele>656.76</ele><time>2026-04-14T22:58:05.000Z</time></trkpt>
        <trkpt lat="28.6613117" lon="105.6659883"><ele>653.55</ele><time>2026-04-14T22:59:27.000Z</time></trkpt>
        <trkpt lat="28.6612667" lon="105.6660817"><ele>648.07</ele><time>2026-04-14T22:59:45.000Z</time></trkpt>
        <trkpt lat="28.6612527" lon="105.6661905"><ele>643.13</ele><time>2026-04-14T23:00:13.000Z</time></trkpt>
        <trkpt lat="28.6613266" lon="105.6663227"><ele>639.03</ele><time>2026-04-14T23:01:11.000Z</time></trkpt>
        <trkpt lat="28.6614581" lon="105.6663983"><ele>632.05</ele><time>2026-04-14T23:01:55.000Z</time></trkpt>
        <trkpt lat="28.6615611" lon="105.6664614"><ele>623.77</ele><time>2026-04-14T23:02:17.000Z</time></trkpt>
        <trkpt lat="28.6616456" lon="105.6665206"><ele>616.6</ele><time>2026-04-14T23:02:33.000Z</time></trkpt>
        <trkpt lat="28.6617227" lon="105.6665779"><ele>610.15</ele><time>2026-04-14T23:02:53.000Z</time></trkpt>
        <trkpt lat="28.6617985" lon="105.6666318"><ele>604.28</ele><time>2026-04-14T23:03:11.000Z</time></trkpt>
        <trkpt lat="28.6618806" lon="105.6666716"><ele>599.04</ele><time>2026-04-14T23:03:29.000Z</time></trkpt>
        <trkpt lat="28.6619389" lon="105.6667493"><ele>593.73</ele><time>2026-04-14T23:03:53.000Z</time></trkpt>
        <trkpt lat="28.6619659" lon="105.6668519"><ele>588.56</ele><time>2026-04-14T23:04:07.000Z</time></trkpt>
        <trkpt lat="28.6619977" lon="105.6669559"><ele>584.27</ele><time>2026-04-14T23:04:27.000Z</time></trkpt>
        <trkpt lat="28.662061" lon="105.667037"><ele>579.64</ele><time>2026-04-14T23:04:51.000Z</time></trkpt>
        <trkpt lat="28.6621357" lon="105.6670997"><ele>575.75</ele><time>2026-04-14T23:05:19.000Z</time></trkpt>
        <trkpt lat="28.6622121" lon="105.6671575"><ele>572.12</ele><time>2026-04-14T23:05:47.000Z</time></trkpt>
        <trkpt lat="28.6622965" lon="105.6671986"><ele>567.51</ele><time>2026-04-14T23:06:07.000Z</time></trkpt>
        <trkpt lat="28.6623882" lon="105.6672271"><ele>563.72</ele><time>2026-04-14T23:06:31.000Z</time></trkpt>
        <trkpt lat="28.6624629" lon="105.6672899"><ele>558.81</ele><time>2026-04-14T23:06:51.000Z</time></trkpt>
        <trkpt lat="28.6625493" lon="105.6673255"><ele>553.34</ele><time>2026-04-14T23:07:15.000Z</time></trkpt>
        <trkpt lat="28.6625842" lon="105.667415"><ele>548.29</ele><time>2026-04-14T23:07:45.000Z</time></trkpt>
        <trkpt lat="28.6626411" lon="105.6674964"><ele>542.79</ele><time>2026-04-14T23:08:13.000Z</time></trkpt>
        <trkpt lat="28.6626824" lon="105.6675899"><ele>536.3</ele><time>2026-04-14T23:08:37.000Z</time></trkpt>
        <trkpt lat="28.6627195" lon="105.6676856"><ele>530.41</ele><time>2026-04-14T23:08:57.000Z</time></trkpt>
        <trkpt lat="28.6627697" lon="105.6677736"><ele>524.98</ele><time>2026-04-14T23:09:19.000Z</time></trkpt>
        <trkpt lat="28.6628342" lon="105.6678467"><ele>520.26</ele><time>2026-04-14T23:09:47.000Z</time></trkpt>
        <trkpt lat="28.6629249" lon="105.6678857"><ele>515.24</ele><time>2026-04-14T23:10:05.000Z</time></trkpt>
        <trkpt lat="28.6630167" lon="105.66804"><ele>510.49</ele><time>2026-04-14T23:13:05.000Z</time></trkpt>
        <trkpt lat="28.6630933" lon="105.6681283"><ele>501.25</ele><time>2026-04-14T23:13:43.000Z</time></trkpt>
        <trkpt lat="28.6631841" lon="105.6681729"><ele>493.23</ele><time>2026-04-14T23:14:09.000Z</time></trkpt>
        <trkpt lat="28.6632336" lon="105.66826"><ele>487.45</ele><time>2026-04-14T23:14:37.000Z</time></trkpt>
        <trkpt lat="28.6632315" lon="105.6683651"><ele>480.85</ele><time>2026-04-14T23:14:55.000Z</time></trkpt>
        <trkpt lat="28.6632805" lon="105.6684448"><ele>474.16</ele><time>2026-04-14T23:15:07.000Z</time></trkpt>
        <trkpt lat="28.6633556" lon="105.6685036"><ele>468.8</ele><time>2026-04-14T23:15:21.000Z</time></trkpt>
        <trkpt lat="28.663387" lon="105.6685928"><ele>463.98</ele><time>2026-04-14T23:15:39.000Z</time></trkpt>
        <trkpt lat="28.663413" lon="105.6686996"><ele>459.69</ele><time>2026-04-14T23:15:55.000Z</time></trkpt>
        <trkpt lat="28.6634498" lon="105.6687993"><ele>456.51</ele><time>2026-04-14T23:16:07.000Z</time></trkpt>
        <trkpt lat="28.6634678" lon="105.6689076"><ele>453.97</ele><time>2026-04-14T23:16:23.000Z</time></trkpt>
        <trkpt lat="28.6634951" lon="105.6690111"><ele>452.35</ele><time>2026-04-14T23:16:43.000Z</time></trkpt>
        <trkpt lat="28.6635194" lon="105.6691147"><ele>449.44</ele><time>2026-04-14T23:17:05.000Z</time></trkpt>
        <trkpt lat="28.6635226" lon="105.6692207"><ele>445.47</ele><time>2026-04-14T23:17:49.000Z</time></trkpt>
        <trkpt lat="28.6635445" lon="105.6693238"><ele>440.02</ele><time>2026-04-14T23:18:07.000Z</time></trkpt>
        <trkpt lat="28.6636071" lon="105.6694018"><ele>435.75</ele><time>2026-04-14T23:18:23.000Z</time></trkpt>
        <trkpt lat="28.6636829" lon="105.6694846"><ele>431.47</ele><time>2026-04-14T23:18:39.000Z</time></trkpt>
        <trkpt lat="28.6637561" lon="105.6694516"><ele>426.62</ele><time>2026-04-14T23:18:53.000Z</time></trkpt>
        <trkpt lat="28.6637763" lon="105.6693404"><ele>421.97</ele><time>2026-04-14T23:19:05.000Z</time></trkpt>
        <trkpt lat="28.6638137" lon="105.669226"><ele>418.2</ele><time>2026-04-14T23:19:15.000Z</time></trkpt>
        <trkpt lat="28.6638611" lon="105.6691233"><ele>416.82</ele><time>2026-04-14T23:19:27.000Z</time></trkpt>
        <trkpt lat="28.6639426" lon="105.6690567"><ele>416.73</ele><time>2026-04-14T23:19:47.000Z</time></trkpt>
        <trkpt lat="28.6640361" lon="105.6690149"><ele>417.02</ele><time>2026-04-14T23:20:05.000Z</time></trkpt>
        <trkpt lat="28.6641344" lon="105.6690112"><ele>416.84</ele><time>2026-04-14T23:20:13.000Z</time></trkpt>
        <trkpt lat="28.6642353" lon="105.6690181"><ele>416.69</ele><time>2026-04-14T23:20:21.000Z</time></trkpt>
        <trkpt lat="28.6643359" lon="105.6690271"><ele>416.22</ele><time>2026-04-14T23:20:29.000Z</time></trkpt>
        <trkpt lat="28.6644307" lon="105.6690447"><ele>415.4</ele><time>2026-04-14T23:20:37.000Z</time></trkpt>
        <trkpt lat="28.6645329" lon="105.6690678"><ele>415.01</ele><time>2026-04-14T23:20:49.000Z</time></trkpt>
        <trkpt lat="28.6646329" lon="105.6691043"><ele>414.23</ele><time>2026-04-14T23:20:59.000Z</time></trkpt>
        <trkpt lat="28.6647243" lon="105.6691373"><ele>414.86</ele><time>2026-04-14T23:21:07.000Z</time></trkpt>
        <trkpt lat="28.6648237" lon="105.6691351"><ele>415.01</ele><time>2026-04-14T23:21:17.000Z</time></trkpt>
        <trkpt lat="28.6648977" lon="105.6690734"><ele>415.26</ele><time>2026-04-14T23:21:27.000Z</time></trkpt>
        <trkpt lat="28.6649522" lon="105.6689704"><ele>415.92</ele><time>2026-04-14T23:21:39.000Z</time></trkpt>
        <trkpt lat="28.6649921" lon="105.6688538"><ele>416.6</ele><time>2026-04-14T23:21:49.000Z</time></trkpt>
        <trkpt lat="28.6650522" lon="105.6687518"><ele>417.07</ele><time>2026-04-14T23:22:01.000Z</time></trkpt>
        <trkpt lat="28.6651327" lon="105.6686896"><ele>417.3</ele><time>2026-04-14T23:22:09.000Z</time></trkpt>
        <trkpt lat="28.6652141" lon="105.668639"><ele>417.17</ele><time>2026-04-14T23:22:19.000Z</time></trkpt>
        <trkpt lat="28.6652734" lon="105.6685608"><ele>416.84</ele><time>2026-04-14T23:22:29.000Z</time></trkpt>
        <trkpt lat="28.6653214" lon="105.6684573"><ele>415.32</ele><time>2026-04-14T23:22:39.000Z</time></trkpt>
        <trkpt lat="28.6653737" lon="105.6683577"><ele>413.76</ele><time>2026-04-14T23:22:49.000Z</time></trkpt>
        <trkpt lat="28.6654285" lon="105.6682512"><ele>413.18</ele><time>2026-04-14T23:22:59.000Z</time></trkpt>
        <trkpt lat="28.6654584" lon="105.668128"><ele>412.84</ele><time>2026-04-14T23:23:09.000Z</time></trkpt>
        <trkpt lat="28.6654954" lon="105.6680144"><ele>412.26</ele><time>2026-04-14T23:23:19.000Z</time></trkpt>
        <trkpt lat="28.6655289" lon="105.6679056"><ele>411.68</ele><time>2026-04-14T23:23:29.000Z</time></trkpt>
        <trkpt lat="28.665554" lon="105.6678038"><ele>410.74</ele><time>2026-04-14T23:23:37.000Z</time></trkpt>
        <trkpt lat="28.6655764" lon="105.6676918"><ele>409.05</ele><time>2026-04-14T23:23:47.000Z</time></trkpt>
        <trkpt lat="28.6656084" lon="105.6675895"><ele>407</ele><time>2026-04-14T23:23:57.000Z</time></trkpt>
        <trkpt lat="28.6656532" lon="105.6674922"><ele>404.98</ele><time>2026-04-14T23:24:05.000Z</time></trkpt>
        <trkpt lat="28.6657238" lon="105.6674064"><ele>403.91</ele><time>2026-04-14T23:24:15.000Z</time></trkpt>
        <trkpt lat="28.6658016" lon="105.6673443"><ele>403.48</ele><time>2026-04-14T23:24:25.000Z</time></trkpt>
        <trkpt lat="28.6658903" lon="105.6673076"><ele>403.01</ele><time>2026-04-14T23:24:33.000Z</time></trkpt>
        <trkpt lat="28.6659878" lon="105.6672771"><ele>403.18</ele><time>2026-04-14T23:24:41.000Z</time></trkpt>
        <trkpt lat="28.666081" lon="105.6672404"><ele>403.15</ele><time>2026-04-14T23:24:49.000Z</time></trkpt>
        <trkpt lat="28.6661713" lon="105.6672035"><ele>403</ele><time>2026-04-14T23:24:57.000Z</time></trkpt>
        <trkpt lat="28.6662678" lon="105.6671498"><ele>402.27</ele><time>2026-04-14T23:25:07.000Z</time></trkpt>
        <trkpt lat="28.6663514" lon="105.6670959"><ele>401.16</ele><time>2026-04-14T23:25:15.000Z</time></trkpt>
        <trkpt lat="28.6664362" lon="105.6670353"><ele>399.76</ele><time>2026-04-14T23:25:23.000Z</time></trkpt>
        <trkpt lat="28.6665245" lon="105.6669951"><ele>398.06</ele><time>2026-04-14T23:25:31.000Z</time></trkpt>
        <trkpt lat="28.666628" lon="105.6669894"><ele>396.7</ele><time>2026-04-14T23:25:39.000Z</time></trkpt>
        <trkpt lat="28.6667295" lon="105.6670104"><ele>395.62</ele><time>2026-04-14T23:25:47.000Z</time></trkpt>
        <trkpt lat="28.6668306" lon="105.6670452"><ele>394.58</ele><time>2026-04-14T23:25:55.000Z</time></trkpt>
        <trkpt lat="28.6669213" lon="105.6670948"><ele>393.6</ele><time>2026-04-14T23:26:03.000Z</time></trkpt>
        <trkpt lat="28.6670129" lon="105.6671388"><ele>392.44</ele><time>2026-04-14T23:26:11.000Z</time></trkpt>
        <trkpt lat="28.6670766" lon="105.6672165"><ele>391.13</ele><time>2026-04-14T23:26:19.000Z</time></trkpt>
        <trkpt lat="28.6670964" lon="105.6673345"><ele>389.83</ele><time>2026-04-14T23:26:29.000Z</time></trkpt>
        <trkpt lat="28.6671107" lon="105.6674587"><ele>388.01</ele><time>2026-04-14T23:26:37.000Z</time></trkpt>
        <trkpt lat="28.6671261" lon="105.6675718"><ele>385.81</ele><time>2026-04-14T23:26:45.000Z</time></trkpt>
        <trkpt lat="28.6671679" lon="105.6676712"><ele>383.53</ele><time>2026-04-14T23:26:53.000Z</time></trkpt>
        <trkpt lat="28.667229" lon="105.667755"><ele>381.54</ele><time>2026-04-14T23:27:01.000Z</time></trkpt>
        <trkpt lat="28.6672876" lon="105.6678399"><ele>379.93</ele><time>2026-04-14T23:27:09.000Z</time></trkpt>
        <trkpt lat="28.6673762" lon="105.6678974"><ele>378.45</ele><time>2026-04-14T23:27:17.000Z</time></trkpt>
        <trkpt lat="28.6674614" lon="105.6679593"><ele>376.75</ele><time>2026-04-14T23:27:29.000Z</time></trkpt>
        <trkpt lat="28.6675045" lon="105.6680508"><ele>375.78</ele><time>2026-04-14T23:27:37.000Z</time></trkpt>
        <trkpt lat="28.6675313" lon="105.6681676"><ele>374.72</ele><time>2026-04-14T23:27:47.000Z</time></trkpt>
        <trkpt lat="28.6675528" lon="105.6682799"><ele>374.11</ele><time>2026-04-14T23:27:57.000Z</time></trkpt>
        <trkpt lat="28.6675779" lon="105.668386"><ele>372.86</ele><time>2026-04-14T23:28:07.000Z</time></trkpt>
        <trkpt lat="28.6676182" lon="105.668479"><ele>370.94</ele><time>2026-04-14T23:28:17.000Z</time></trkpt>
        <trkpt lat="28.6676733" lon="105.6685821"><ele>368.94</ele><time>2026-04-14T23:28:27.000Z</time></trkpt>
        <trkpt lat="28.6677319" lon="105.6686783"><ele>366.43</ele><time>2026-04-14T23:28:37.000Z</time></trkpt>
        <trkpt lat="28.6678095" lon="105.6687505"><ele>363.79</ele><time>2026-04-14T23:28:49.000Z</time></trkpt>
        <trkpt lat="28.6678783" lon="105.6688229"><ele>361.34</ele><time>2026-04-14T23:28:57.000Z</time></trkpt>
        <trkpt lat="28.6679135" lon="105.668932"><ele>359.39</ele><time>2026-04-14T23:29:07.000Z</time></trkpt>
        <trkpt lat="28.6679926" lon="105.6689788"><ele>357.16</ele><time>2026-04-14T23:29:17.000Z</time></trkpt>
        <trkpt lat="28.668078" lon="105.6689274"><ele>355.07</ele><time>2026-04-14T23:29:33.000Z</time></trkpt>
        <trkpt lat="28.6681331" lon="105.6688201"><ele>353.79</ele><time>2026-04-14T23:29:41.000Z</time></trkpt>
        <trkpt lat="28.668177" lon="105.6686941"><ele>352.25</ele><time>2026-04-14T23:29:51.000Z</time></trkpt>
        <trkpt lat="28.668198" lon="105.6685692"><ele>350.29</ele><time>2026-04-14T23:30:05.000Z</time></trkpt>
        <trkpt lat="28.6682143" lon="105.6684455"><ele>349.52</ele><time>2026-04-14T23:30:15.000Z</time></trkpt>
        <trkpt lat="28.6681918" lon="105.6683308"><ele>348.69</ele><time>2026-04-14T23:30:31.000Z</time></trkpt>
        <trkpt lat="28.6681766" lon="105.6682143"><ele>347.36</ele><time>2026-04-14T23:30:49.000Z</time></trkpt>
        <trkpt lat="28.6682168" lon="105.6680961"><ele>347.12</ele><time>2026-04-14T23:30:57.000Z</time></trkpt>
        <trkpt lat="28.6682909" lon="105.6679962"><ele>347.03</ele><time>2026-04-14T23:31:05.000Z</time></trkpt>
        <trkpt lat="28.6683812" lon="105.6679157"><ele>346.8</ele><time>2026-04-14T23:31:15.000Z</time></trkpt>
        <trkpt lat="28.6684441" lon="105.6678263"><ele>346.54</ele><time>2026-04-14T23:31:39.000Z</time></trkpt>
        <trkpt lat="28.6685447" lon="105.6678161"><ele>344.93</ele><time>2026-04-14T23:31:51.000Z</time></trkpt>
        <trkpt lat="28.668624" lon="105.6677555"><ele>343.41</ele><time>2026-04-14T23:32:05.000Z</time></trkpt>
        <trkpt lat="28.6687186" lon="105.6677334"><ele>340.53</ele><time>2026-04-14T23:32:15.000Z</time></trkpt>
        <trkpt lat="28.6688152" lon="105.6677383"><ele>338.58</ele><time>2026-04-14T23:32:23.000Z</time></trkpt>
        <trkpt lat="28.6689192" lon="105.6677373"><ele>337.56</ele><time>2026-04-14T23:32:33.000Z</time></trkpt>
        <trkpt lat="28.6690267" lon="105.6677191"><ele>336.84</ele><time>2026-04-14T23:32:43.000Z</time></trkpt>
        <trkpt lat="28.6691284" lon="105.6676962"><ele>335.92</ele><time>2026-04-14T23:32:49.000Z</time></trkpt>
        <trkpt lat="28.6692301" lon="105.6676807"><ele>334.62</ele><time>2026-04-14T23:32:57.000Z</time></trkpt>
        <trkpt lat="28.6693255" lon="105.667676"><ele>333.06</ele><time>2026-04-14T23:33:05.000Z</time></trkpt>
        <trkpt lat="28.6694198" lon="105.6676762"><ele>330.67</ele><time>2026-04-14T23:33:15.000Z</time></trkpt>
        <trkpt lat="28.6695216" lon="105.6676939"><ele>327.8</ele><time>2026-04-14T23:33:25.000Z</time></trkpt>
        <trkpt lat="28.6696202" lon="105.6676835"><ele>325.43</ele><time>2026-04-14T23:33:37.000Z</time></trkpt>
        <trkpt lat="28.6697072" lon="105.6676465"><ele>323.05</ele><time>2026-04-14T23:33:51.000Z</time></trkpt>
        <trkpt lat="28.6697901" lon="105.6676784"><ele>320.58</ele><time>2026-04-14T23:34:09.000Z</time></trkpt>
        <trkpt lat="28.6698709" lon="105.6677322"><ele>317.06</ele><time>2026-04-14T23:34:19.000Z</time></trkpt>
        <trkpt lat="28.6699151" lon="105.6678302"><ele>314.28</ele><time>2026-04-14T23:34:31.000Z</time></trkpt>
        <trkpt lat="28.6699802" lon="105.6679128"><ele>310.59</ele><time>2026-04-14T23:34:43.000Z</time></trkpt>
        <trkpt lat="28.6700552" lon="105.6679797"><ele>306.68</ele><time>2026-04-14T23:34:53.000Z</time></trkpt>
        <trkpt lat="28.670125" lon="105.6680497"><ele>304.11</ele><time>2026-04-14T23:35:03.000Z</time></trkpt>
        <trkpt lat="28.6702025" lon="105.6681085"><ele>301.44</ele><time>2026-04-14T23:35:13.000Z</time></trkpt>
        <trkpt lat="28.670294" lon="105.6681557"><ele>299.31</ele><time>2026-04-14T23:35:23.000Z</time></trkpt>
        <trkpt lat="28.6703853" lon="105.6681942"><ele>298.45</ele><time>2026-04-14T23:35:31.000Z</time></trkpt>
        <trkpt lat="28.6704842" lon="105.6682318"><ele>298.25</ele><time>2026-04-14T23:35:39.000Z</time></trkpt>
        <trkpt lat="28.6705816" lon="105.6682587"><ele>298.36</ele><time>2026-04-14T23:35:47.000Z</time></trkpt>
        <trkpt lat="28.6706741" lon="105.6682898"><ele>298.46</ele><time>2026-04-14T23:35:57.000Z</time></trkpt>
        <trkpt lat="28.670775" lon="105.6683233"><ele>297.88</ele><time>2026-04-14T23:37:09.000Z</time></trkpt>
        <trkpt lat="28.67087" lon="105.6683333"><ele>293.16</ele><time>2026-04-14T23:37:19.000Z</time></trkpt>
        <trkpt lat="28.6709706" lon="105.6683462"><ele>291.37</ele><time>2026-04-14T23:37:29.000Z</time></trkpt>
        <trkpt lat="28.6710774" lon="105.6683723"><ele>290.35</ele><time>2026-04-14T23:37:39.000Z</time></trkpt>
        <trkpt lat="28.6711799" lon="105.668404"><ele>288.74</ele><time>2026-04-14T23:37:49.000Z</time></trkpt>
        <trkpt lat="28.671283" lon="105.6683996"><ele>286.79</ele><time>2026-04-14T23:38:01.000Z</time></trkpt>
        <trkpt lat="28.6713201" lon="105.6683901"><ele>284.34</ele><time>2026-04-14T23:38:11.000Z</time></trkpt>
        <trkpt lat="28.67139" lon="105.6683733"><ele>282.09</ele><time>2026-04-14T23:39:19.000Z</time></trkpt>
        <trkpt lat="28.67148" lon="105.6683417"><ele>281.66</ele><time>2026-04-14T23:39:27.000Z</time></trkpt>
        <trkpt lat="28.6715742" lon="105.6683312"><ele>280.77</ele><time>2026-04-14T23:39:37.000Z</time></trkpt>
        <trkpt lat="28.6716499" lon="105.6684029"><ele>279.32</ele><time>2026-04-14T23:39:49.000Z</time></trkpt>
        <trkpt lat="28.6717173" lon="105.6684816"><ele>277.64</ele><time>2026-04-14T23:39:57.000Z</time></trkpt>
        <trkpt lat="28.6717847" lon="105.6685738"><ele>276.29</ele><time>2026-04-14T23:40:09.000Z</time></trkpt>
        <trkpt lat="28.6718192" lon="105.6686783"><ele>275.3</ele><time>2026-04-14T23:40:17.000Z</time></trkpt>
        <trkpt lat="28.6718321" lon="105.668791"><ele>275.17</ele><time>2026-04-14T23:40:25.000Z</time></trkpt>
        <trkpt lat="28.6718392" lon="105.6689011"><ele>275.44</ele><time>2026-04-14T23:40:33.000Z</time></trkpt>
        <trkpt lat="28.6718878" lon="105.6689862"><ele>275.77</ele><time>2026-04-14T23:40:45.000Z</time></trkpt>
        <trkpt lat="28.6719644" lon="105.6690628"><ele>276.26</ele><time>2026-04-14T23:40:57.000Z</time></trkpt>
        <trkpt lat="28.6720572" lon="105.6691122"><ele>276.92</ele><time>2026-04-14T23:41:07.000Z</time></trkpt>
        <trkpt lat="28.672165" lon="105.6691064"><ele>277.17</ele><time>2026-04-14T23:41:17.000Z</time></trkpt>
        <trkpt lat="28.672266" lon="105.6691263"><ele>277.05</ele><time>2026-04-14T23:41:37.000Z</time></trkpt>
        <trkpt lat="28.6723764" lon="105.6691296"><ele>277.68</ele><time>2026-04-14T23:41:47.000Z</time></trkpt>
        <trkpt lat="28.6724834" lon="105.6691439"><ele>278.33</ele><time>2026-04-14T23:41:55.000Z</time></trkpt>
        <trkpt lat="28.6725343" lon="105.6691097"><ele>278.92</ele><time>2026-04-14T23:42:09.000Z</time></trkpt>
        <trkpt lat="28.6726084" lon="105.6691155"><ele>279.43</ele><time>2026-04-14T23:42:27.000Z</time></trkpt>
        <trkpt lat="28.6726938" lon="105.6691786"><ele>279.33</ele><time>2026-04-14T23:42:35.000Z</time></trkpt>
        <trkpt lat="28.6727336" lon="105.6692056"><ele>278.8</ele><time>2026-04-14T23:42:37.000Z</time></trkpt>
        <trkpt lat="28.6728138" lon="105.6691933"><ele>278.41</ele><time>2026-04-14T23:42:45.000Z</time></trkpt>
        <trkpt lat="28.6729023" lon="105.6691618"><ele>278.19</ele><time>2026-04-14T23:42:53.000Z</time></trkpt>
        <trkpt lat="28.6730116" lon="105.6691642"><ele>278.02</ele><time>2026-04-14T23:43:03.000Z</time></trkpt>
        <trkpt lat="28.6730786" lon="105.6692452"><ele>277.33</ele><time>2026-04-14T23:43:15.000Z</time></trkpt>
        <trkpt lat="28.6731461" lon="105.6693328"><ele>275.55</ele><time>2026-04-14T23:43:59.000Z</time></trkpt>
        <trkpt lat="28.6732339" lon="105.669382"><ele>275.31</ele><time>2026-04-14T23:44:13.000Z</time></trkpt>
        <trkpt lat="28.6733325" lon="105.6693992"><ele>275.65</ele><time>2026-04-14T23:44:23.000Z</time></trkpt>
        <trkpt lat="28.6734404" lon="105.6693865"><ele>275.59</ele><time>2026-04-14T23:44:35.000Z</time></trkpt>
        <trkpt lat="28.6735471" lon="105.6693713"><ele>275.42</ele><time>2026-04-14T23:44:43.000Z</time></trkpt>
        <trkpt lat="28.673651" lon="105.6693729"><ele>275.2</ele><time>2026-04-14T23:44:51.000Z</time></trkpt>
        <trkpt lat="28.673746" lon="105.6694135"><ele>274.38</ele><time>2026-04-14T23:45:01.000Z</time></trkpt>
        <trkpt lat="28.6737962" lon="105.6695096"><ele>273.27</ele><time>2026-04-14T23:45:11.000Z</time></trkpt>
        <trkpt lat="28.6737955" lon="105.6696276"><ele>271.86</ele><time>2026-04-14T23:45:21.000Z</time></trkpt>
        <trkpt lat="28.6737788" lon="105.6697569"><ele>271.11</ele><time>2026-04-14T23:45:31.000Z</time></trkpt>
        <trkpt lat="28.6737605" lon="105.6698832"><ele>270.46</ele><time>2026-04-14T23:45:41.000Z</time></trkpt>
        <trkpt lat="28.673756" lon="105.6699971"><ele>269.79</ele><time>2026-04-14T23:45:49.000Z</time></trkpt>
        <trkpt lat="28.6737833" lon="105.6701067"><ele>269.49</ele><time>2026-04-14T23:45:59.000Z</time></trkpt>
        <trkpt lat="28.673855" lon="105.6701934"><ele>269.19</ele><time>2026-04-14T23:46:09.000Z</time></trkpt>
        <trkpt lat="28.6739438" lon="105.6702621"><ele>268.85</ele><time>2026-04-14T23:46:19.000Z</time></trkpt>
        <trkpt lat="28.6740342" lon="105.6703193"><ele>268.66</ele><time>2026-04-14T23:46:29.000Z</time></trkpt>
        <trkpt lat="28.6741175" lon="105.6703766"><ele>268.25</ele><time>2026-04-14T23:46:39.000Z</time></trkpt>
        <trkpt lat="28.6742042" lon="105.6703503"><ele>268.91</ele><time>2026-04-14T23:46:45.000Z</time></trkpt>
        <trkpt lat="28.674288" lon="105.6702892"><ele>270.46</ele><time>2026-04-14T23:46:53.000Z</time></trkpt>
        <trkpt lat="28.6743828" lon="105.670238"><ele>272.45</ele><time>2026-04-14T23:47:03.000Z</time></trkpt>
        <trkpt lat="28.6744842" lon="105.6702351"><ele>273.38</ele><time>2026-04-14T23:47:11.000Z</time></trkpt>
        <trkpt lat="28.6745809" lon="105.6702804"><ele>273.69</ele><time>2026-04-14T23:47:21.000Z</time></trkpt>
        <trkpt lat="28.6746792" lon="105.6703042"><ele>272.88</ele><time>2026-04-14T23:47:35.000Z</time></trkpt>
        <trkpt lat="28.6747583" lon="105.6702417"><ele>272.24</ele><time>2026-04-14T23:49:15.000Z</time></trkpt>
        <trkpt lat="28.67485" lon="105.67022"><ele>272.01</ele><time>2026-04-14T23:49:25.000Z</time></trkpt>
        <trkpt lat="28.6749008" lon="105.6703055"><ele>272.35</ele><time>2026-04-14T23:49:37.000Z</time></trkpt>
        <trkpt lat="28.6749945" lon="105.6703174"><ele>273.32</ele><time>2026-04-14T23:49:47.000Z</time></trkpt>
        <trkpt lat="28.6750801" lon="105.6702754"><ele>275.25</ele><time>2026-04-14T23:49:57.000Z</time></trkpt>
        <trkpt lat="28.675172" lon="105.6702724"><ele>276.6</ele><time>2026-04-14T23:50:05.000Z</time></trkpt>
        <trkpt lat="28.6752723" lon="105.6702832"><ele>277.16</ele><time>2026-04-14T23:50:13.000Z</time></trkpt>
        <trkpt lat="28.6753664" lon="105.6702577"><ele>277.65</ele><time>2026-04-14T23:50:21.000Z</time></trkpt>
        <trkpt lat="28.6754638" lon="105.670233"><ele>277.71</ele><time>2026-04-14T23:50:29.000Z</time></trkpt>
        <trkpt lat="28.6755611" lon="105.6702139"><ele>277.02</ele><time>2026-04-14T23:50:37.000Z</time></trkpt>
        <trkpt lat="28.6756556" lon="105.6701727"><ele>276.24</ele><time>2026-04-14T23:50:45.000Z</time></trkpt>
        <trkpt lat="28.6756952" lon="105.6701585"><ele>274.41</ele><time>2026-04-14T23:50:57.000Z</time></trkpt>
        <trkpt lat="28.6756609" lon="105.670084"><ele>272.6</ele><time>2026-04-14T23:51:29.000Z</time></trkpt>
        <trkpt lat="28.6757655" lon="105.6700018"><ele>272.56</ele><time>2026-04-14T23:51:57.000Z</time></trkpt>
        <trkpt lat="28.6757087" lon="105.670026"><ele>272.79</ele><time>2026-04-14T23:52:46.000Z</time></trkpt>
        <trkpt lat="28.6757087" lon="105.670026"><ele>272.79</ele><time>2026-04-14T23:55:33.000Z</time></trkpt>
      </trkseg>
  </trk>
</gpx>